<?xml version="1.0" encoding="UTF-8" standalone="no" ?>
<gpx xmlns="http://www.topografix.com/GPX/1/1" xmlns:xsi="http://www.w3.org/2001/XMLSchema-instance" xsi:schemaLocation="http://www.topografix.com/GPX/1/1 http://www.topografix.com/GPX/1/1/gpx.xsd" version="1.1" creator="VisuGPX - https://www.visugpx.com">
  <metadata>
    <name>Entre la Redonne et Niolon</name>
    <desc><![CDATA[Superbe randonnée entre le port de la Redonne et Niolon at retour en TER]]></desc>
  </metadata>
  <trk>
    <name><![CDATA[2016-10-31 15:18:32]]></name>
    <trkseg>
      <trkpt lat="43.33359" lon="5.19925">
        <ele>80.89</ele>
        <time>2016-10-31T08:58:25Z</time>
      </trkpt>
      <trkpt lat="43.33359" lon="5.19925">
        <ele>80.89</ele>
        <time>2016-10-31T08:58:26Z</time>
      </trkpt>
      <trkpt lat="43.33359" lon="5.19924">
        <ele>6.87</ele>
        <time>2016-10-31T08:58:29Z</time>
      </trkpt>
      <trkpt lat="43.33359" lon="5.19924">
        <ele>6.87</ele>
        <time>2016-10-31T08:58:30Z</time>
      </trkpt>
      <trkpt lat="43.33358" lon="5.19923">
        <ele>6.39</ele>
        <time>2016-10-31T08:58:37Z</time>
      </trkpt>
      <trkpt lat="43.33359" lon="5.19923">
        <ele>7.35</ele>
        <time>2016-10-31T08:58:42Z</time>
      </trkpt>
      <trkpt lat="43.33358" lon="5.19923">
        <ele>2.06</ele>
        <time>2016-10-31T08:58:45Z</time>
      </trkpt>
      <trkpt lat="43.33358" lon="5.19923">
        <ele>10.71</ele>
        <time>2016-10-31T08:58:46Z</time>
      </trkpt>
      <trkpt lat="43.33358" lon="5.19923">
        <ele>6.39</ele>
        <time>2016-10-31T08:58:47Z</time>
      </trkpt>
      <trkpt lat="43.33359" lon="5.19923">
        <ele>6.39</ele>
        <time>2016-10-31T08:59:09Z</time>
      </trkpt>
      <trkpt lat="43.33359" lon="5.19923">
        <ele>6.39</ele>
        <time>2016-10-31T08:59:27Z</time>
      </trkpt>
      <trkpt lat="43.33361" lon="5.19925">
        <ele>6.39</ele>
        <time>2016-10-31T08:59:48Z</time>
      </trkpt>
      <trkpt lat="43.33365" lon="5.19926">
        <ele>6.39</ele>
        <time>2016-10-31T09:00:20Z</time>
      </trkpt>
      <trkpt lat="43.33363" lon="5.19926">
        <ele>7.83</ele>
        <time>2016-10-31T09:00:42Z</time>
      </trkpt>
      <trkpt lat="43.33361" lon="5.19926">
        <ele>7.83</ele>
        <time>2016-10-31T09:01:02Z</time>
      </trkpt>
      <trkpt lat="43.33357" lon="5.19927">
        <ele>7.35</ele>
        <time>2016-10-31T09:01:30Z</time>
      </trkpt>
      <trkpt lat="43.3335" lon="5.19932">
        <ele>7.35</ele>
        <time>2016-10-31T09:01:46Z</time>
      </trkpt>
      <trkpt lat="43.33349" lon="5.19933">
        <ele>7.35</ele>
        <time>2016-10-31T09:02:02Z</time>
      </trkpt>
      <trkpt lat="43.33348" lon="5.19933">
        <ele>7.35</ele>
        <time>2016-10-31T09:02:19Z</time>
      </trkpt>
      <trkpt lat="43.33347" lon="5.19937">
        <ele>7.35</ele>
        <time>2016-10-31T09:02:39Z</time>
      </trkpt>
      <trkpt lat="43.33348" lon="5.19936">
        <ele>7.35</ele>
        <time>2016-10-31T09:02:58Z</time>
      </trkpt>
      <trkpt lat="43.33347" lon="5.19936">
        <ele>7.35</ele>
        <time>2016-10-31T09:03:19Z</time>
      </trkpt>
      <trkpt lat="43.33348" lon="5.19937">
        <ele>7.35</ele>
        <time>2016-10-31T09:03:44Z</time>
      </trkpt>
      <trkpt lat="43.33348" lon="5.19939">
        <ele>7.35</ele>
        <time>2016-10-31T09:04:04Z</time>
      </trkpt>
      <trkpt lat="43.33349" lon="5.19938">
        <ele>7.35</ele>
        <time>2016-10-31T09:04:31Z</time>
      </trkpt>
      <trkpt lat="43.33349" lon="5.19942">
        <ele>7.35</ele>
        <time>2016-10-31T09:04:49Z</time>
      </trkpt>
      <trkpt lat="43.3335" lon="5.19943">
        <ele>7.35</ele>
        <time>2016-10-31T09:05:03Z</time>
      </trkpt>
      <trkpt lat="43.3335" lon="5.19951">
        <ele>7.35</ele>
        <time>2016-10-31T09:05:19Z</time>
      </trkpt>
      <trkpt lat="43.33345" lon="5.19967">
        <ele>7.35</ele>
        <time>2016-10-31T09:05:36Z</time>
      </trkpt>
      <trkpt lat="43.33338" lon="5.19977">
        <ele>7.83</ele>
        <time>2016-10-31T09:05:52Z</time>
      </trkpt>
      <trkpt lat="43.33326" lon="5.19991">
        <ele>8.31</ele>
        <time>2016-10-31T09:06:11Z</time>
      </trkpt>
      <trkpt lat="43.33311" lon="5.20005">
        <ele>9.27</ele>
        <time>2016-10-31T09:06:30Z</time>
      </trkpt>
      <trkpt lat="43.33306" lon="5.20029">
        <ele>10.71</ele>
        <time>2016-10-31T09:06:51Z</time>
      </trkpt>
      <trkpt lat="43.33309" lon="5.20049">
        <ele>13.12</ele>
        <time>2016-10-31T09:07:09Z</time>
      </trkpt>
      <trkpt lat="43.33297" lon="5.20062">
        <ele>16</ele>
        <time>2016-10-31T09:07:27Z</time>
      </trkpt>
      <trkpt lat="43.33286" lon="5.20056">
        <ele>18.88</ele>
        <time>2016-10-31T09:07:45Z</time>
      </trkpt>
      <trkpt lat="43.33278" lon="5.20045">
        <ele>20.81</ele>
        <time>2016-10-31T09:08:01Z</time>
      </trkpt>
      <trkpt lat="43.33271" lon="5.20034">
        <ele>23.69</ele>
        <time>2016-10-31T09:08:18Z</time>
      </trkpt>
      <trkpt lat="43.33257" lon="5.20021">
        <ele>26.57</ele>
        <time>2016-10-31T09:08:37Z</time>
      </trkpt>
      <trkpt lat="43.33242" lon="5.20007">
        <ele>29.94</ele>
        <time>2016-10-31T09:08:57Z</time>
      </trkpt>
      <trkpt lat="43.33227" lon="5.19992">
        <ele>32.34</ele>
        <time>2016-10-31T09:09:15Z</time>
      </trkpt>
      <trkpt lat="43.33209" lon="5.19992">
        <ele>33.3</ele>
        <time>2016-10-31T09:09:33Z</time>
      </trkpt>
      <trkpt lat="43.33197" lon="5.20011">
        <ele>34.26</ele>
        <time>2016-10-31T09:09:52Z</time>
      </trkpt>
      <trkpt lat="43.3319" lon="5.20027">
        <ele>35.71</ele>
        <time>2016-10-31T09:10:10Z</time>
      </trkpt>
      <trkpt lat="43.33189" lon="5.2003">
        <ele>35.71</ele>
        <time>2016-10-31T09:10:34Z</time>
      </trkpt>
      <trkpt lat="43.33189" lon="5.2003">
        <ele>35.71</ele>
        <time>2016-10-31T09:11:11Z</time>
      </trkpt>
      <trkpt lat="43.33189" lon="5.2003">
        <ele>35.71</ele>
        <time>2016-10-31T09:11:30Z</time>
      </trkpt>
      <trkpt lat="43.33189" lon="5.20031">
        <ele>35.71</ele>
        <time>2016-10-31T09:11:58Z</time>
      </trkpt>
      <trkpt lat="43.33188" lon="5.20036">
        <ele>35.71</ele>
        <time>2016-10-31T09:12:28Z</time>
      </trkpt>
      <trkpt lat="43.33183" lon="5.20053">
        <ele>37.15</ele>
        <time>2016-10-31T09:12:45Z</time>
      </trkpt>
      <trkpt lat="43.33179" lon="5.20071">
        <ele>39.07</ele>
        <time>2016-10-31T09:13:02Z</time>
      </trkpt>
      <trkpt lat="43.33178" lon="5.20077">
        <ele>39.07</ele>
        <time>2016-10-31T09:13:07Z</time>
      </trkpt>
      <trkpt lat="43.3317" lon="5.20101">
        <ele>40.51</ele>
        <time>2016-10-31T09:13:26Z</time>
      </trkpt>
      <trkpt lat="43.33164" lon="5.20126">
        <ele>40.99</ele>
        <time>2016-10-31T09:13:45Z</time>
      </trkpt>
      <trkpt lat="43.33159" lon="5.20143">
        <ele>41.47</ele>
        <time>2016-10-31T09:14:03Z</time>
      </trkpt>
      <trkpt lat="43.33156" lon="5.20154">
        <ele>42.44</ele>
        <time>2016-10-31T09:14:13Z</time>
      </trkpt>
      <trkpt lat="43.33153" lon="5.20167">
        <ele>43.4</ele>
        <time>2016-10-31T09:14:30Z</time>
      </trkpt>
      <trkpt lat="43.33149" lon="5.20176">
        <ele>43.4</ele>
        <time>2016-10-31T09:14:43Z</time>
      </trkpt>
      <trkpt lat="43.33143" lon="5.20192">
        <ele>40.99</ele>
        <time>2016-10-31T09:15:00Z</time>
      </trkpt>
      <trkpt lat="43.3314" lon="5.20205">
        <ele>39.55</ele>
        <time>2016-10-31T09:15:15Z</time>
      </trkpt>
      <trkpt lat="43.33133" lon="5.20207">
        <ele>36.19</ele>
        <time>2016-10-31T09:15:28Z</time>
      </trkpt>
      <trkpt lat="43.33128" lon="5.20219">
        <ele>33.78</ele>
        <time>2016-10-31T09:15:45Z</time>
      </trkpt>
      <trkpt lat="43.33124" lon="5.20229">
        <ele>30.42</ele>
        <time>2016-10-31T09:16:02Z</time>
      </trkpt>
      <trkpt lat="43.33123" lon="5.20234">
        <ele>28.98</ele>
        <time>2016-10-31T09:16:18Z</time>
      </trkpt>
      <trkpt lat="43.33121" lon="5.20245">
        <ele>27.05</ele>
        <time>2016-10-31T09:16:34Z</time>
      </trkpt>
      <trkpt lat="43.33124" lon="5.20258">
        <ele>25.13</ele>
        <time>2016-10-31T09:16:51Z</time>
      </trkpt>
      <trkpt lat="43.33132" lon="5.20271">
        <ele>23.69</ele>
        <time>2016-10-31T09:17:09Z</time>
      </trkpt>
      <trkpt lat="43.33134" lon="5.20284">
        <ele>20.81</ele>
        <time>2016-10-31T09:17:24Z</time>
      </trkpt>
      <trkpt lat="43.33133" lon="5.20293">
        <ele>17.92</ele>
        <time>2016-10-31T09:17:38Z</time>
      </trkpt>
      <trkpt lat="43.33133" lon="5.20299">
        <ele>16.48</ele>
        <time>2016-10-31T09:17:53Z</time>
      </trkpt>
      <trkpt lat="43.33133" lon="5.20312">
        <ele>13.6</ele>
        <time>2016-10-31T09:18:12Z</time>
      </trkpt>
      <trkpt lat="43.3314" lon="5.20323">
        <ele>11.19</ele>
        <time>2016-10-31T09:18:29Z</time>
      </trkpt>
      <trkpt lat="43.33146" lon="5.20329">
        <ele>8.79</ele>
        <time>2016-10-31T09:18:44Z</time>
      </trkpt>
      <trkpt lat="43.33147" lon="5.2033">
        <ele>8.31</ele>
        <time>2016-10-31T09:18:45Z</time>
      </trkpt>
      <trkpt lat="43.33157" lon="5.20326">
        <ele>10.23</ele>
        <time>2016-10-31T09:19:04Z</time>
      </trkpt>
      <trkpt lat="43.33161" lon="5.2033">
        <ele>13.12</ele>
        <time>2016-10-31T09:19:21Z</time>
      </trkpt>
      <trkpt lat="43.33161" lon="5.2034">
        <ele>14.56</ele>
        <time>2016-10-31T09:19:36Z</time>
      </trkpt>
      <trkpt lat="43.33161" lon="5.20347">
        <ele>16.48</ele>
        <time>2016-10-31T09:19:49Z</time>
      </trkpt>
      <trkpt lat="43.33165" lon="5.20353">
        <ele>18.4</ele>
        <time>2016-10-31T09:20:03Z</time>
      </trkpt>
      <trkpt lat="43.33161" lon="5.20361">
        <ele>20.32</ele>
        <time>2016-10-31T09:20:15Z</time>
      </trkpt>
      <trkpt lat="43.33154" lon="5.2037">
        <ele>21.77</ele>
        <time>2016-10-31T09:20:29Z</time>
      </trkpt>
      <trkpt lat="43.33144" lon="5.20382">
        <ele>23.69</ele>
        <time>2016-10-31T09:20:46Z</time>
      </trkpt>
      <trkpt lat="43.33138" lon="5.20391">
        <ele>25.61</ele>
        <time>2016-10-31T09:20:59Z</time>
      </trkpt>
      <trkpt lat="43.33132" lon="5.20401">
        <ele>27.53</ele>
        <time>2016-10-31T09:21:13Z</time>
      </trkpt>
      <trkpt lat="43.33127" lon="5.20411">
        <ele>28.98</ele>
        <time>2016-10-31T09:21:26Z</time>
      </trkpt>
      <trkpt lat="43.33124" lon="5.2042">
        <ele>30.42</ele>
        <time>2016-10-31T09:21:37Z</time>
      </trkpt>
      <trkpt lat="43.33123" lon="5.20423">
        <ele>30.42</ele>
        <time>2016-10-31T09:22:00Z</time>
      </trkpt>
      <trkpt lat="43.33123" lon="5.20422">
        <ele>30.42</ele>
        <time>2016-10-31T09:22:25Z</time>
      </trkpt>
      <trkpt lat="43.33122" lon="5.20424">
        <ele>30.42</ele>
        <time>2016-10-31T09:22:51Z</time>
      </trkpt>
      <trkpt lat="43.33124" lon="5.20426">
        <ele>30.42</ele>
        <time>2016-10-31T09:23:14Z</time>
      </trkpt>
      <trkpt lat="43.33123" lon="5.20424">
        <ele>30.42</ele>
        <time>2016-10-31T09:23:42Z</time>
      </trkpt>
      <trkpt lat="43.33122" lon="5.20424">
        <ele>30.42</ele>
        <time>2016-10-31T09:23:57Z</time>
      </trkpt>
      <trkpt lat="43.33124" lon="5.20425">
        <ele>30.42</ele>
        <time>2016-10-31T09:24:29Z</time>
      </trkpt>
      <trkpt lat="43.33122" lon="5.20427">
        <ele>30.42</ele>
        <time>2016-10-31T09:24:57Z</time>
      </trkpt>
      <trkpt lat="43.33123" lon="5.20427">
        <ele>30.42</ele>
        <time>2016-10-31T09:25:28Z</time>
      </trkpt>
      <trkpt lat="43.33123" lon="5.20426">
        <ele>30.42</ele>
        <time>2016-10-31T09:25:49Z</time>
      </trkpt>
      <trkpt lat="43.33122" lon="5.20427">
        <ele>30.42</ele>
        <time>2016-10-31T09:26:11Z</time>
      </trkpt>
      <trkpt lat="43.33121" lon="5.20428">
        <ele>30.42</ele>
        <time>2016-10-31T09:26:40Z</time>
      </trkpt>
      <trkpt lat="43.33121" lon="5.20437">
        <ele>31.86</ele>
        <time>2016-10-31T09:26:53Z</time>
      </trkpt>
      <trkpt lat="43.33121" lon="5.20449">
        <ele>33.3</ele>
        <time>2016-10-31T09:27:07Z</time>
      </trkpt>
      <trkpt lat="43.3312" lon="5.20459">
        <ele>34.74</ele>
        <time>2016-10-31T09:27:19Z</time>
      </trkpt>
      <trkpt lat="43.33118" lon="5.20474">
        <ele>36.67</ele>
        <time>2016-10-31T09:27:34Z</time>
      </trkpt>
      <trkpt lat="43.33115" lon="5.20489">
        <ele>39.07</ele>
        <time>2016-10-31T09:27:50Z</time>
      </trkpt>
      <trkpt lat="43.33116" lon="5.20504">
        <ele>40.99</ele>
        <time>2016-10-31T09:28:04Z</time>
      </trkpt>
      <trkpt lat="43.33117" lon="5.20517">
        <ele>42.92</ele>
        <time>2016-10-31T09:28:18Z</time>
      </trkpt>
      <trkpt lat="43.33117" lon="5.20535">
        <ele>44.36</ele>
        <time>2016-10-31T09:28:35Z</time>
      </trkpt>
      <trkpt lat="43.33118" lon="5.20547">
        <ele>46.28</ele>
        <time>2016-10-31T09:28:47Z</time>
      </trkpt>
      <trkpt lat="43.33116" lon="5.2056">
        <ele>47.24</ele>
        <time>2016-10-31T09:29:00Z</time>
      </trkpt>
      <trkpt lat="43.33114" lon="5.20578">
        <ele>48.2</ele>
        <time>2016-10-31T09:29:17Z</time>
      </trkpt>
      <trkpt lat="43.33113" lon="5.20583">
        <ele>48.68</ele>
        <time>2016-10-31T09:29:22Z</time>
      </trkpt>
      <trkpt lat="43.33113" lon="5.20605">
        <ele>49.16</ele>
        <time>2016-10-31T09:29:39Z</time>
      </trkpt>
      <trkpt lat="43.33112" lon="5.20628">
        <ele>50.13</ele>
        <time>2016-10-31T09:29:57Z</time>
      </trkpt>
      <trkpt lat="43.33108" lon="5.20652">
        <ele>50.61</ele>
        <time>2016-10-31T09:30:16Z</time>
      </trkpt>
      <trkpt lat="43.33105" lon="5.20673">
        <ele>50.61</ele>
        <time>2016-10-31T09:30:32Z</time>
      </trkpt>
      <trkpt lat="43.33103" lon="5.20684">
        <ele>50.61</ele>
        <time>2016-10-31T09:30:42Z</time>
      </trkpt>
      <trkpt lat="43.33101" lon="5.20703">
        <ele>50.61</ele>
        <time>2016-10-31T09:30:58Z</time>
      </trkpt>
      <trkpt lat="43.33099" lon="5.20722">
        <ele>51.09</ele>
        <time>2016-10-31T09:31:13Z</time>
      </trkpt>
      <trkpt lat="43.33098" lon="5.20734">
        <ele>51.09</ele>
        <time>2016-10-31T09:31:23Z</time>
      </trkpt>
      <trkpt lat="43.33094" lon="5.20754">
        <ele>51.09</ele>
        <time>2016-10-31T09:31:40Z</time>
      </trkpt>
      <trkpt lat="43.33091" lon="5.20765">
        <ele>51.09</ele>
        <time>2016-10-31T09:31:48Z</time>
      </trkpt>
      <trkpt lat="43.33089" lon="5.2078">
        <ele>52.53</ele>
        <time>2016-10-31T09:32:03Z</time>
      </trkpt>
      <trkpt lat="43.33084" lon="5.20797">
        <ele>53.01</ele>
        <time>2016-10-31T09:32:18Z</time>
      </trkpt>
      <trkpt lat="43.33084" lon="5.208">
        <ele>52.05</ele>
        <time>2016-10-31T09:32:21Z</time>
      </trkpt>
      <trkpt lat="43.33083" lon="5.20813">
        <ele>51.57</ele>
        <time>2016-10-31T09:32:32Z</time>
      </trkpt>
      <trkpt lat="43.33083" lon="5.20827">
        <ele>52.05</ele>
        <time>2016-10-31T09:32:44Z</time>
      </trkpt>
      <trkpt lat="43.33082" lon="5.20849">
        <ele>52.05</ele>
        <time>2016-10-31T09:33:01Z</time>
      </trkpt>
      <trkpt lat="43.33082" lon="5.20868">
        <ele>50.61</ele>
        <time>2016-10-31T09:33:20Z</time>
      </trkpt>
      <trkpt lat="43.3308" lon="5.20885">
        <ele>48.2</ele>
        <time>2016-10-31T09:33:39Z</time>
      </trkpt>
      <trkpt lat="43.33077" lon="5.20895">
        <ele>46.28</ele>
        <time>2016-10-31T09:33:55Z</time>
      </trkpt>
      <trkpt lat="43.33078" lon="5.20914">
        <ele>44.84</ele>
        <time>2016-10-31T09:34:12Z</time>
      </trkpt>
      <trkpt lat="43.33077" lon="5.20926">
        <ele>44.36</ele>
        <time>2016-10-31T09:34:23Z</time>
      </trkpt>
      <trkpt lat="43.33078" lon="5.20941">
        <ele>42.92</ele>
        <time>2016-10-31T09:34:39Z</time>
      </trkpt>
      <trkpt lat="43.33081" lon="5.20958">
        <ele>41.47</ele>
        <time>2016-10-31T09:34:56Z</time>
      </trkpt>
      <trkpt lat="43.33082" lon="5.20967">
        <ele>40.03</ele>
        <time>2016-10-31T09:35:13Z</time>
      </trkpt>
      <trkpt lat="43.33083" lon="5.20972">
        <ele>38.11</ele>
        <time>2016-10-31T09:35:30Z</time>
      </trkpt>
      <trkpt lat="43.33082" lon="5.20975">
        <ele>36.67</ele>
        <time>2016-10-31T09:35:49Z</time>
      </trkpt>
      <trkpt lat="43.33083" lon="5.20975">
        <ele>36.67</ele>
        <time>2016-10-31T09:36:06Z</time>
      </trkpt>
      <trkpt lat="43.33084" lon="5.20979">
        <ele>35.71</ele>
        <time>2016-10-31T09:36:29Z</time>
      </trkpt>
      <trkpt lat="43.33086" lon="5.20979">
        <ele>34.74</ele>
        <time>2016-10-31T09:36:44Z</time>
      </trkpt>
      <trkpt lat="43.33087" lon="5.20981">
        <ele>34.74</ele>
        <time>2016-10-31T09:36:57Z</time>
      </trkpt>
      <trkpt lat="43.33088" lon="5.2098">
        <ele>34.26</ele>
        <time>2016-10-31T09:37:13Z</time>
      </trkpt>
      <trkpt lat="43.33092" lon="5.20982">
        <ele>34.26</ele>
        <time>2016-10-31T09:37:27Z</time>
      </trkpt>
      <trkpt lat="43.33097" lon="5.20983">
        <ele>34.26</ele>
        <time>2016-10-31T09:37:42Z</time>
      </trkpt>
      <trkpt lat="43.33103" lon="5.20985">
        <ele>34.26</ele>
        <time>2016-10-31T09:37:59Z</time>
      </trkpt>
      <trkpt lat="43.33118" lon="5.20987">
        <ele>35.71</ele>
        <time>2016-10-31T09:38:17Z</time>
      </trkpt>
      <trkpt lat="43.33128" lon="5.20976">
        <ele>38.11</ele>
        <time>2016-10-31T09:38:35Z</time>
      </trkpt>
      <trkpt lat="43.33141" lon="5.20969">
        <ele>40.51</ele>
        <time>2016-10-31T09:38:54Z</time>
      </trkpt>
      <trkpt lat="43.3315" lon="5.2098">
        <ele>41.95</ele>
        <time>2016-10-31T09:39:09Z</time>
      </trkpt>
      <trkpt lat="43.33168" lon="5.20993">
        <ele>43.4</ele>
        <time>2016-10-31T09:39:29Z</time>
      </trkpt>
      <trkpt lat="43.33172" lon="5.20993">
        <ele>43.88</ele>
        <time>2016-10-31T09:39:33Z</time>
      </trkpt>
      <trkpt lat="43.33182" lon="5.20992">
        <ele>44.36</ele>
        <time>2016-10-31T09:39:43Z</time>
      </trkpt>
      <trkpt lat="43.332" lon="5.20982">
        <ele>46.28</ele>
        <time>2016-10-31T09:40:01Z</time>
      </trkpt>
      <trkpt lat="43.33211" lon="5.20975">
        <ele>46.76</ele>
        <time>2016-10-31T09:40:14Z</time>
      </trkpt>
      <trkpt lat="43.33223" lon="5.20977">
        <ele>47.72</ele>
        <time>2016-10-31T09:40:34Z</time>
      </trkpt>
      <trkpt lat="43.33224" lon="5.20976">
        <ele>47.72</ele>
        <time>2016-10-31T09:40:54Z</time>
      </trkpt>
      <trkpt lat="43.33226" lon="5.20972">
        <ele>47.72</ele>
        <time>2016-10-31T09:41:21Z</time>
      </trkpt>
      <trkpt lat="43.33225" lon="5.20971">
        <ele>47.72</ele>
        <time>2016-10-31T09:41:49Z</time>
      </trkpt>
      <trkpt lat="43.33229" lon="5.20977">
        <ele>46.76</ele>
        <time>2016-10-31T09:42:08Z</time>
      </trkpt>
      <trkpt lat="43.33229" lon="5.20978">
        <ele>46.76</ele>
        <time>2016-10-31T09:42:09Z</time>
      </trkpt>
      <trkpt lat="43.33227" lon="5.20998">
        <ele>43.4</ele>
        <time>2016-10-31T09:42:27Z</time>
      </trkpt>
      <trkpt lat="43.33228" lon="5.21021">
        <ele>40.99</ele>
        <time>2016-10-31T09:42:47Z</time>
      </trkpt>
      <trkpt lat="43.33224" lon="5.21045">
        <ele>37.63</ele>
        <time>2016-10-31T09:43:06Z</time>
      </trkpt>
      <trkpt lat="43.33216" lon="5.21077">
        <ele>34.26</ele>
        <time>2016-10-31T09:43:30Z</time>
      </trkpt>
      <trkpt lat="43.33208" lon="5.21099">
        <ele>31.38</ele>
        <time>2016-10-31T09:43:49Z</time>
      </trkpt>
      <trkpt lat="43.332" lon="5.21123">
        <ele>28.5</ele>
        <time>2016-10-31T09:44:11Z</time>
      </trkpt>
      <trkpt lat="43.33192" lon="5.21138">
        <ele>26.09</ele>
        <time>2016-10-31T09:44:29Z</time>
      </trkpt>
      <trkpt lat="43.33179" lon="5.21136">
        <ele>23.21</ele>
        <time>2016-10-31T09:44:47Z</time>
      </trkpt>
      <trkpt lat="43.33172" lon="5.2113">
        <ele>21.77</ele>
        <time>2016-10-31T09:45:02Z</time>
      </trkpt>
      <trkpt lat="43.33169" lon="5.21112">
        <ele>21.29</ele>
        <time>2016-10-31T09:45:19Z</time>
      </trkpt>
      <trkpt lat="43.33164" lon="5.21091">
        <ele>19.84</ele>
        <time>2016-10-31T09:45:37Z</time>
      </trkpt>
      <trkpt lat="43.33151" lon="5.21071">
        <ele>17.44</ele>
        <time>2016-10-31T09:45:55Z</time>
      </trkpt>
      <trkpt lat="43.33137" lon="5.2106">
        <ele>16</ele>
        <time>2016-10-31T09:46:12Z</time>
      </trkpt>
      <trkpt lat="43.33111" lon="5.21053">
        <ele>13.6</ele>
        <time>2016-10-31T09:46:33Z</time>
      </trkpt>
      <trkpt lat="43.33101" lon="5.21054">
        <ele>12.15</ele>
        <time>2016-10-31T09:46:43Z</time>
      </trkpt>
      <trkpt lat="43.33087" lon="5.21053">
        <ele>9.75</ele>
        <time>2016-10-31T09:47:02Z</time>
      </trkpt>
      <trkpt lat="43.33072" lon="5.21049">
        <ele>7.83</ele>
        <time>2016-10-31T09:47:20Z</time>
      </trkpt>
      <trkpt lat="43.3306" lon="5.21058">
        <ele>6.87</ele>
        <time>2016-10-31T09:47:37Z</time>
      </trkpt>
      <trkpt lat="43.33053" lon="5.21062">
        <ele>5.91</ele>
        <time>2016-10-31T09:47:51Z</time>
      </trkpt>
      <trkpt lat="43.33055" lon="5.21065">
        <ele>5.91</ele>
        <time>2016-10-31T09:48:09Z</time>
      </trkpt>
      <trkpt lat="43.33056" lon="5.21064">
        <ele>4.46</ele>
        <time>2016-10-31T09:48:27Z</time>
      </trkpt>
      <trkpt lat="43.33056" lon="5.21063">
        <ele>4.94</ele>
        <time>2016-10-31T09:48:56Z</time>
      </trkpt>
      <trkpt lat="43.33054" lon="5.21063">
        <ele>4.94</ele>
        <time>2016-10-31T09:49:32Z</time>
      </trkpt>
      <trkpt lat="43.33056" lon="5.21064">
        <ele>4.94</ele>
        <time>2016-10-31T09:50:08Z</time>
      </trkpt>
      <trkpt lat="43.33057" lon="5.21065">
        <ele>4.94</ele>
        <time>2016-10-31T09:50:42Z</time>
      </trkpt>
      <trkpt lat="43.33057" lon="5.21064">
        <ele>4.94</ele>
        <time>2016-10-31T09:51:12Z</time>
      </trkpt>
      <trkpt lat="43.33056" lon="5.21064">
        <ele>4.94</ele>
        <time>2016-10-31T09:51:47Z</time>
      </trkpt>
      <trkpt lat="43.33055" lon="5.21064">
        <ele>4.94</ele>
        <time>2016-10-31T09:52:14Z</time>
      </trkpt>
      <trkpt lat="43.33055" lon="5.21063">
        <ele>4.94</ele>
        <time>2016-10-31T09:52:53Z</time>
      </trkpt>
      <trkpt lat="43.33056" lon="5.21063">
        <ele>4.94</ele>
        <time>2016-10-31T09:53:28Z</time>
      </trkpt>
      <trkpt lat="43.33057" lon="5.21065">
        <ele>4.94</ele>
        <time>2016-10-31T09:54:02Z</time>
      </trkpt>
      <trkpt lat="43.33057" lon="5.21063">
        <ele>4.94</ele>
        <time>2016-10-31T09:54:35Z</time>
      </trkpt>
      <trkpt lat="43.33055" lon="5.21064">
        <ele>4.94</ele>
        <time>2016-10-31T09:55:10Z</time>
      </trkpt>
      <trkpt lat="43.33055" lon="5.21063">
        <ele>4.94</ele>
        <time>2016-10-31T09:55:48Z</time>
      </trkpt>
      <trkpt lat="43.33056" lon="5.21063">
        <ele>4.46</ele>
        <time>2016-10-31T09:56:18Z</time>
      </trkpt>
      <trkpt lat="43.33057" lon="5.21065">
        <ele>4.46</ele>
        <time>2016-10-31T09:56:48Z</time>
      </trkpt>
      <trkpt lat="43.33058" lon="5.21063">
        <ele>4.46</ele>
        <time>2016-10-31T09:57:22Z</time>
      </trkpt>
      <trkpt lat="43.33057" lon="5.21064">
        <ele>4.46</ele>
        <time>2016-10-31T09:58:02Z</time>
      </trkpt>
      <trkpt lat="43.33058" lon="5.21064">
        <ele>5.42</ele>
        <time>2016-10-31T09:58:32Z</time>
      </trkpt>
      <trkpt lat="43.33055" lon="5.21064">
        <ele>5.42</ele>
        <time>2016-10-31T09:58:52Z</time>
      </trkpt>
      <trkpt lat="43.33057" lon="5.21061">
        <ele>5.91</ele>
        <time>2016-10-31T09:59:07Z</time>
      </trkpt>
      <trkpt lat="43.33056" lon="5.21061">
        <ele>6.39</ele>
        <time>2016-10-31T09:59:27Z</time>
      </trkpt>
      <trkpt lat="43.33057" lon="5.21059">
        <ele>6.39</ele>
        <time>2016-10-31T09:59:54Z</time>
      </trkpt>
      <trkpt lat="43.33067" lon="5.21063">
        <ele>6.39</ele>
        <time>2016-10-31T10:00:09Z</time>
      </trkpt>
      <trkpt lat="43.33071" lon="5.21063">
        <ele>7.35</ele>
        <time>2016-10-31T10:00:22Z</time>
      </trkpt>
      <trkpt lat="43.33072" lon="5.21063">
        <ele>8.79</ele>
        <time>2016-10-31T10:00:37Z</time>
      </trkpt>
      <trkpt lat="43.33077" lon="5.21064">
        <ele>11.19</ele>
        <time>2016-10-31T10:00:52Z</time>
      </trkpt>
      <trkpt lat="43.33078" lon="5.21069">
        <ele>12.15</ele>
        <time>2016-10-31T10:01:09Z</time>
      </trkpt>
      <trkpt lat="43.33078" lon="5.21078">
        <ele>13.12</ele>
        <time>2016-10-31T10:01:24Z</time>
      </trkpt>
      <trkpt lat="43.33077" lon="5.21085">
        <ele>15.52</ele>
        <time>2016-10-31T10:01:38Z</time>
      </trkpt>
      <trkpt lat="43.33075" lon="5.21095">
        <ele>18.4</ele>
        <time>2016-10-31T10:01:53Z</time>
      </trkpt>
      <trkpt lat="43.33072" lon="5.211">
        <ele>20.32</ele>
        <time>2016-10-31T10:02:07Z</time>
      </trkpt>
      <trkpt lat="43.33072" lon="5.21107">
        <ele>23.21</ele>
        <time>2016-10-31T10:02:21Z</time>
      </trkpt>
      <trkpt lat="43.3307" lon="5.21108">
        <ele>24.65</ele>
        <time>2016-10-31T10:02:32Z</time>
      </trkpt>
      <trkpt lat="43.33068" lon="5.21112">
        <ele>27.05</ele>
        <time>2016-10-31T10:02:44Z</time>
      </trkpt>
      <trkpt lat="43.33066" lon="5.21118">
        <ele>28.5</ele>
        <time>2016-10-31T10:02:59Z</time>
      </trkpt>
      <trkpt lat="43.33065" lon="5.21123">
        <ele>29.46</ele>
        <time>2016-10-31T10:03:15Z</time>
      </trkpt>
      <trkpt lat="43.33064" lon="5.21125">
        <ele>29.46</ele>
        <time>2016-10-31T10:03:36Z</time>
      </trkpt>
      <trkpt lat="43.33064" lon="5.21128">
        <ele>28.5</ele>
        <time>2016-10-31T10:03:57Z</time>
      </trkpt>
      <trkpt lat="43.3306" lon="5.2113">
        <ele>28.02</ele>
        <time>2016-10-31T10:04:15Z</time>
      </trkpt>
      <trkpt lat="43.33052" lon="5.21145">
        <ele>28.02</ele>
        <time>2016-10-31T10:04:33Z</time>
      </trkpt>
      <trkpt lat="43.33051" lon="5.21147">
        <ele>29.46</ele>
        <time>2016-10-31T10:04:36Z</time>
      </trkpt>
      <trkpt lat="43.33049" lon="5.2116">
        <ele>31.38</ele>
        <time>2016-10-31T10:04:51Z</time>
      </trkpt>
      <trkpt lat="43.33048" lon="5.21174">
        <ele>32.34</ele>
        <time>2016-10-31T10:05:05Z</time>
      </trkpt>
      <trkpt lat="43.33046" lon="5.21192">
        <ele>32.82</ele>
        <time>2016-10-31T10:05:22Z</time>
      </trkpt>
      <trkpt lat="43.33043" lon="5.21206">
        <ele>32.82</ele>
        <time>2016-10-31T10:05:38Z</time>
      </trkpt>
      <trkpt lat="43.33037" lon="5.21219">
        <ele>30.42</ele>
        <time>2016-10-31T10:05:54Z</time>
      </trkpt>
      <trkpt lat="43.33034" lon="5.21225">
        <ele>29.46</ele>
        <time>2016-10-31T10:06:08Z</time>
      </trkpt>
      <trkpt lat="43.33034" lon="5.21228">
        <ele>28.5</ele>
        <time>2016-10-31T10:06:26Z</time>
      </trkpt>
      <trkpt lat="43.33029" lon="5.2123">
        <ele>27.05</ele>
        <time>2016-10-31T10:06:48Z</time>
      </trkpt>
      <trkpt lat="43.33023" lon="5.21238">
        <ele>26.09</ele>
        <time>2016-10-31T10:07:01Z</time>
      </trkpt>
      <trkpt lat="43.33019" lon="5.21241">
        <ele>24.65</ele>
        <time>2016-10-31T10:07:17Z</time>
      </trkpt>
      <trkpt lat="43.33015" lon="5.21246">
        <ele>23.69</ele>
        <time>2016-10-31T10:07:33Z</time>
      </trkpt>
      <trkpt lat="43.33007" lon="5.21256">
        <ele>21.77</ele>
        <time>2016-10-31T10:07:50Z</time>
      </trkpt>
      <trkpt lat="43.32999" lon="5.21273">
        <ele>21.29</ele>
        <time>2016-10-31T10:08:08Z</time>
      </trkpt>
      <trkpt lat="43.32997" lon="5.21279">
        <ele>20.81</ele>
        <time>2016-10-31T10:08:23Z</time>
      </trkpt>
      <trkpt lat="43.32999" lon="5.21282">
        <ele>22.25</ele>
        <time>2016-10-31T10:08:36Z</time>
      </trkpt>
      <trkpt lat="43.33004" lon="5.21285">
        <ele>25.13</ele>
        <time>2016-10-31T10:08:51Z</time>
      </trkpt>
      <trkpt lat="43.33009" lon="5.21288">
        <ele>28.5</ele>
        <time>2016-10-31T10:09:06Z</time>
      </trkpt>
      <trkpt lat="43.33013" lon="5.21288">
        <ele>29.46</ele>
        <time>2016-10-31T10:09:21Z</time>
      </trkpt>
      <trkpt lat="43.33018" lon="5.2129">
        <ele>31.38</ele>
        <time>2016-10-31T10:09:39Z</time>
      </trkpt>
      <trkpt lat="43.33022" lon="5.21292">
        <ele>34.26</ele>
        <time>2016-10-31T10:09:55Z</time>
      </trkpt>
      <trkpt lat="43.33027" lon="5.21294">
        <ele>36.67</ele>
        <time>2016-10-31T10:10:14Z</time>
      </trkpt>
      <trkpt lat="43.33031" lon="5.21296">
        <ele>39.55</ele>
        <time>2016-10-31T10:10:30Z</time>
      </trkpt>
      <trkpt lat="43.33036" lon="5.213">
        <ele>41.95</ele>
        <time>2016-10-31T10:10:46Z</time>
      </trkpt>
      <trkpt lat="43.3304" lon="5.213">
        <ele>43.4</ele>
        <time>2016-10-31T10:11:00Z</time>
      </trkpt>
      <trkpt lat="43.33043" lon="5.21297">
        <ele>43.88</ele>
        <time>2016-10-31T10:11:29Z</time>
      </trkpt>
      <trkpt lat="43.33045" lon="5.213">
        <ele>46.28</ele>
        <time>2016-10-31T10:11:45Z</time>
      </trkpt>
      <trkpt lat="43.33048" lon="5.21304">
        <ele>49.16</ele>
        <time>2016-10-31T10:12:01Z</time>
      </trkpt>
      <trkpt lat="43.33051" lon="5.21305">
        <ele>49.65</ele>
        <time>2016-10-31T10:12:15Z</time>
      </trkpt>
      <trkpt lat="43.33049" lon="5.21308">
        <ele>49.65</ele>
        <time>2016-10-31T10:12:43Z</time>
      </trkpt>
      <trkpt lat="43.3305" lon="5.21308">
        <ele>49.65</ele>
        <time>2016-10-31T10:12:58Z</time>
      </trkpt>
      <trkpt lat="43.33053" lon="5.21305">
        <ele>49.65</ele>
        <time>2016-10-31T10:13:18Z</time>
      </trkpt>
      <trkpt lat="43.3305" lon="5.21311">
        <ele>49.65</ele>
        <time>2016-10-31T10:13:35Z</time>
      </trkpt>
      <trkpt lat="43.33049" lon="5.21316">
        <ele>49.65</ele>
        <time>2016-10-31T10:13:57Z</time>
      </trkpt>
      <trkpt lat="43.33052" lon="5.21317">
        <ele>49.65</ele>
        <time>2016-10-31T10:14:30Z</time>
      </trkpt>
      <trkpt lat="43.33051" lon="5.21315">
        <ele>49.65</ele>
        <time>2016-10-31T10:15:07Z</time>
      </trkpt>
      <trkpt lat="43.33051" lon="5.2132">
        <ele>49.65</ele>
        <time>2016-10-31T10:15:35Z</time>
      </trkpt>
      <trkpt lat="43.33044" lon="5.21342">
        <ele>50.61</ele>
        <time>2016-10-31T10:15:57Z</time>
      </trkpt>
      <trkpt lat="43.3304" lon="5.21359">
        <ele>52.05</ele>
        <time>2016-10-31T10:16:13Z</time>
      </trkpt>
      <trkpt lat="43.33039" lon="5.21376">
        <ele>54.45</ele>
        <time>2016-10-31T10:16:30Z</time>
      </trkpt>
      <trkpt lat="43.33036" lon="5.21393">
        <ele>57.34</ele>
        <time>2016-10-31T10:16:49Z</time>
      </trkpt>
      <trkpt lat="43.33034" lon="5.21407">
        <ele>59.74</ele>
        <time>2016-10-31T10:17:05Z</time>
      </trkpt>
      <trkpt lat="43.33032" lon="5.21421">
        <ele>62.62</ele>
        <time>2016-10-31T10:17:22Z</time>
      </trkpt>
      <trkpt lat="43.33037" lon="5.21435">
        <ele>65.51</ele>
        <time>2016-10-31T10:17:39Z</time>
      </trkpt>
      <trkpt lat="43.33046" lon="5.21433">
        <ele>67.91</ele>
        <time>2016-10-31T10:17:54Z</time>
      </trkpt>
      <trkpt lat="43.33056" lon="5.21421">
        <ele>69.83</ele>
        <time>2016-10-31T10:18:12Z</time>
      </trkpt>
      <trkpt lat="43.33067" lon="5.2141">
        <ele>72.72</ele>
        <time>2016-10-31T10:18:29Z</time>
      </trkpt>
      <trkpt lat="43.33078" lon="5.21397">
        <ele>75.6</ele>
        <time>2016-10-31T10:18:48Z</time>
      </trkpt>
      <trkpt lat="43.3309" lon="5.21388">
        <ele>77.04</ele>
        <time>2016-10-31T10:19:04Z</time>
      </trkpt>
      <trkpt lat="43.33095" lon="5.21383">
        <ele>77.52</ele>
        <time>2016-10-31T10:19:23Z</time>
      </trkpt>
      <trkpt lat="43.33104" lon="5.21391">
        <ele>78</ele>
        <time>2016-10-31T10:19:40Z</time>
      </trkpt>
      <trkpt lat="43.33105" lon="5.21407">
        <ele>78.48</ele>
        <time>2016-10-31T10:19:57Z</time>
      </trkpt>
      <trkpt lat="43.33102" lon="5.21425">
        <ele>75.6</ele>
        <time>2016-10-31T10:20:15Z</time>
      </trkpt>
      <trkpt lat="43.331" lon="5.21443">
        <ele>73.68</ele>
        <time>2016-10-31T10:20:31Z</time>
      </trkpt>
      <trkpt lat="43.33108" lon="5.21451">
        <ele>71.76</ele>
        <time>2016-10-31T10:20:47Z</time>
      </trkpt>
      <trkpt lat="43.33117" lon="5.21437">
        <ele>70.79</ele>
        <time>2016-10-31T10:21:04Z</time>
      </trkpt>
      <trkpt lat="43.33124" lon="5.21428">
        <ele>69.35</ele>
        <time>2016-10-31T10:21:20Z</time>
      </trkpt>
      <trkpt lat="43.33134" lon="5.21409">
        <ele>66.95</ele>
        <time>2016-10-31T10:21:41Z</time>
      </trkpt>
      <trkpt lat="43.33144" lon="5.21398">
        <ele>64.55</ele>
        <time>2016-10-31T10:22:02Z</time>
      </trkpt>
      <trkpt lat="43.33149" lon="5.21392">
        <ele>63.1</ele>
        <time>2016-10-31T10:22:20Z</time>
      </trkpt>
      <trkpt lat="43.3316" lon="5.21384">
        <ele>61.18</ele>
        <time>2016-10-31T10:22:37Z</time>
      </trkpt>
      <trkpt lat="43.33168" lon="5.21388">
        <ele>59.74</ele>
        <time>2016-10-31T10:22:55Z</time>
      </trkpt>
      <trkpt lat="43.33168" lon="5.21392">
        <ele>59.74</ele>
        <time>2016-10-31T10:23:10Z</time>
      </trkpt>
      <trkpt lat="43.33166" lon="5.2139">
        <ele>59.74</ele>
        <time>2016-10-31T10:23:41Z</time>
      </trkpt>
      <trkpt lat="43.33165" lon="5.21387">
        <ele>59.74</ele>
        <time>2016-10-31T10:24:06Z</time>
      </trkpt>
      <trkpt lat="43.33166" lon="5.21394">
        <ele>59.74</ele>
        <time>2016-10-31T10:24:32Z</time>
      </trkpt>
      <trkpt lat="43.33167" lon="5.21395">
        <ele>59.74</ele>
        <time>2016-10-31T10:24:59Z</time>
      </trkpt>
      <trkpt lat="43.33166" lon="5.21396">
        <ele>59.74</ele>
        <time>2016-10-31T10:25:19Z</time>
      </trkpt>
      <trkpt lat="43.33158" lon="5.21416">
        <ele>58.78</ele>
        <time>2016-10-31T10:25:38Z</time>
      </trkpt>
      <trkpt lat="43.33152" lon="5.21437">
        <ele>56.86</ele>
        <time>2016-10-31T10:25:57Z</time>
      </trkpt>
      <trkpt lat="43.33144" lon="5.21459">
        <ele>55.41</ele>
        <time>2016-10-31T10:26:16Z</time>
      </trkpt>
      <trkpt lat="43.33143" lon="5.21483">
        <ele>53.49</ele>
        <time>2016-10-31T10:26:35Z</time>
      </trkpt>
      <trkpt lat="43.33148" lon="5.21505">
        <ele>50.13</ele>
        <time>2016-10-31T10:26:53Z</time>
      </trkpt>
      <trkpt lat="43.33153" lon="5.21524">
        <ele>47.72</ele>
        <time>2016-10-31T10:27:10Z</time>
      </trkpt>
      <trkpt lat="43.33159" lon="5.21539">
        <ele>45.32</ele>
        <time>2016-10-31T10:27:28Z</time>
      </trkpt>
      <trkpt lat="43.33162" lon="5.21561">
        <ele>42.92</ele>
        <time>2016-10-31T10:27:44Z</time>
      </trkpt>
      <trkpt lat="43.33167" lon="5.21575">
        <ele>40.99</ele>
        <time>2016-10-31T10:27:59Z</time>
      </trkpt>
      <trkpt lat="43.33163" lon="5.21595">
        <ele>38.59</ele>
        <time>2016-10-31T10:28:16Z</time>
      </trkpt>
      <trkpt lat="43.33154" lon="5.21615">
        <ele>35.71</ele>
        <time>2016-10-31T10:28:33Z</time>
      </trkpt>
      <trkpt lat="43.33146" lon="5.21624">
        <ele>32.34</ele>
        <time>2016-10-31T10:28:51Z</time>
      </trkpt>
      <trkpt lat="43.33134" lon="5.2163">
        <ele>29.94</ele>
        <time>2016-10-31T10:29:10Z</time>
      </trkpt>
      <trkpt lat="43.33118" lon="5.21636">
        <ele>27.05</ele>
        <time>2016-10-31T10:29:29Z</time>
      </trkpt>
      <trkpt lat="43.33104" lon="5.21643">
        <ele>24.65</ele>
        <time>2016-10-31T10:29:47Z</time>
      </trkpt>
      <trkpt lat="43.33088" lon="5.21643">
        <ele>22.25</ele>
        <time>2016-10-31T10:30:04Z</time>
      </trkpt>
      <trkpt lat="43.33074" lon="5.21652">
        <ele>18.88</ele>
        <time>2016-10-31T10:30:22Z</time>
      </trkpt>
      <trkpt lat="43.33077" lon="5.21669">
        <ele>16.48</ele>
        <time>2016-10-31T10:30:39Z</time>
      </trkpt>
      <trkpt lat="43.33087" lon="5.21689">
        <ele>13.6</ele>
        <time>2016-10-31T10:30:58Z</time>
      </trkpt>
      <trkpt lat="43.33089" lon="5.21692">
        <ele>14.08</ele>
        <time>2016-10-31T10:31:01Z</time>
      </trkpt>
      <trkpt lat="43.33098" lon="5.217">
        <ele>12.63</ele>
        <time>2016-10-31T10:31:11Z</time>
      </trkpt>
      <trkpt lat="43.33113" lon="5.21701">
        <ele>10.23</ele>
        <time>2016-10-31T10:31:28Z</time>
      </trkpt>
      <trkpt lat="43.33127" lon="5.21706">
        <ele>7.83</ele>
        <time>2016-10-31T10:31:46Z</time>
      </trkpt>
      <trkpt lat="43.33143" lon="5.21723">
        <ele>7.83</ele>
        <time>2016-10-31T10:32:05Z</time>
      </trkpt>
      <trkpt lat="43.33148" lon="5.2174">
        <ele>10.71</ele>
        <time>2016-10-31T10:32:24Z</time>
      </trkpt>
      <trkpt lat="43.3314" lon="5.21754">
        <ele>14.08</ele>
        <time>2016-10-31T10:32:43Z</time>
      </trkpt>
      <trkpt lat="43.33136" lon="5.21762">
        <ele>14.56</ele>
        <time>2016-10-31T10:32:59Z</time>
      </trkpt>
      <trkpt lat="43.33131" lon="5.21775">
        <ele>16</ele>
        <time>2016-10-31T10:33:10Z</time>
      </trkpt>
      <trkpt lat="43.33131" lon="5.21797">
        <ele>16.96</ele>
        <time>2016-10-31T10:33:25Z</time>
      </trkpt>
      <trkpt lat="43.33141" lon="5.21812">
        <ele>15.52</ele>
        <time>2016-10-31T10:33:41Z</time>
      </trkpt>
      <trkpt lat="43.33154" lon="5.21813">
        <ele>12.15</ele>
        <time>2016-10-31T10:34:00Z</time>
      </trkpt>
      <trkpt lat="43.33162" lon="5.21814">
        <ele>10.23</ele>
        <time>2016-10-31T10:34:21Z</time>
      </trkpt>
      <trkpt lat="43.33174" lon="5.21818">
        <ele>7.35</ele>
        <time>2016-10-31T10:34:41Z</time>
      </trkpt>
      <trkpt lat="43.33181" lon="5.21832">
        <ele>6.87</ele>
        <time>2016-10-31T10:35:00Z</time>
      </trkpt>
      <trkpt lat="43.33176" lon="5.21844">
        <ele>6.87</ele>
        <time>2016-10-31T10:35:16Z</time>
      </trkpt>
      <trkpt lat="43.33175" lon="5.21848">
        <ele>6.87</ele>
        <time>2016-10-31T10:35:30Z</time>
      </trkpt>
      <trkpt lat="43.33172" lon="5.21857">
        <ele>6.87</ele>
        <time>2016-10-31T10:35:46Z</time>
      </trkpt>
      <trkpt lat="43.33171" lon="5.21858">
        <ele>7.83</ele>
        <time>2016-10-31T10:35:48Z</time>
      </trkpt>
      <trkpt lat="43.33163" lon="5.21869">
        <ele>9.27</ele>
        <time>2016-10-31T10:36:03Z</time>
      </trkpt>
      <trkpt lat="43.33155" lon="5.21881">
        <ele>11.19</ele>
        <time>2016-10-31T10:36:21Z</time>
      </trkpt>
      <trkpt lat="43.33151" lon="5.21889">
        <ele>12.63</ele>
        <time>2016-10-31T10:36:36Z</time>
      </trkpt>
      <trkpt lat="43.33147" lon="5.21893">
        <ele>12.63</ele>
        <time>2016-10-31T10:36:51Z</time>
      </trkpt>
      <trkpt lat="43.33148" lon="5.21898">
        <ele>12.63</ele>
        <time>2016-10-31T10:37:20Z</time>
      </trkpt>
      <trkpt lat="43.33147" lon="5.21901">
        <ele>12.63</ele>
        <time>2016-10-31T10:37:55Z</time>
      </trkpt>
      <trkpt lat="43.33139" lon="5.21896">
        <ele>12.63</ele>
        <time>2016-10-31T10:38:08Z</time>
      </trkpt>
      <trkpt lat="43.33135" lon="5.21897">
        <ele>12.63</ele>
        <time>2016-10-31T10:38:13Z</time>
      </trkpt>
      <trkpt lat="43.33122" lon="5.21897">
        <ele>13.12</ele>
        <time>2016-10-31T10:38:32Z</time>
      </trkpt>
      <trkpt lat="43.33114" lon="5.21898">
        <ele>15.04</ele>
        <time>2016-10-31T10:38:47Z</time>
      </trkpt>
      <trkpt lat="43.33108" lon="5.21902">
        <ele>16</ele>
        <time>2016-10-31T10:38:58Z</time>
      </trkpt>
      <trkpt lat="43.33098" lon="5.21908">
        <ele>17.44</ele>
        <time>2016-10-31T10:39:12Z</time>
      </trkpt>
      <trkpt lat="43.33091" lon="5.21917">
        <ele>18.4</ele>
        <time>2016-10-31T10:39:24Z</time>
      </trkpt>
      <trkpt lat="43.33088" lon="5.21933">
        <ele>18.4</ele>
        <time>2016-10-31T10:39:40Z</time>
      </trkpt>
      <trkpt lat="43.3309" lon="5.21938">
        <ele>18.88</ele>
        <time>2016-10-31T10:39:58Z</time>
      </trkpt>
      <trkpt lat="43.33096" lon="5.21945">
        <ele>18.88</ele>
        <time>2016-10-31T10:40:10Z</time>
      </trkpt>
      <trkpt lat="43.33099" lon="5.21955">
        <ele>16.96</ele>
        <time>2016-10-31T10:40:26Z</time>
      </trkpt>
      <trkpt lat="43.33099" lon="5.21962">
        <ele>15.04</ele>
        <time>2016-10-31T10:40:40Z</time>
      </trkpt>
      <trkpt lat="43.33101" lon="5.21978">
        <ele>14.56</ele>
        <time>2016-10-31T10:40:54Z</time>
      </trkpt>
      <trkpt lat="43.33098" lon="5.21983">
        <ele>14.56</ele>
        <time>2016-10-31T10:41:11Z</time>
      </trkpt>
      <trkpt lat="43.33089" lon="5.21983">
        <ele>16.96</ele>
        <time>2016-10-31T10:41:29Z</time>
      </trkpt>
      <trkpt lat="43.33079" lon="5.21992">
        <ele>17.92</ele>
        <time>2016-10-31T10:41:45Z</time>
      </trkpt>
      <trkpt lat="43.33074" lon="5.22008">
        <ele>18.88</ele>
        <time>2016-10-31T10:42:01Z</time>
      </trkpt>
      <trkpt lat="43.33076" lon="5.22018">
        <ele>19.36</ele>
        <time>2016-10-31T10:42:14Z</time>
      </trkpt>
      <trkpt lat="43.33077" lon="5.22032">
        <ele>16.96</ele>
        <time>2016-10-31T10:42:30Z</time>
      </trkpt>
      <trkpt lat="43.33075" lon="5.22047">
        <ele>16</ele>
        <time>2016-10-31T10:42:44Z</time>
      </trkpt>
      <trkpt lat="43.33075" lon="5.2206">
        <ele>15.52</ele>
        <time>2016-10-31T10:43:01Z</time>
      </trkpt>
      <trkpt lat="43.33078" lon="5.22061">
        <ele>15.52</ele>
        <time>2016-10-31T10:43:23Z</time>
      </trkpt>
      <trkpt lat="43.33079" lon="5.22062">
        <ele>15.52</ele>
        <time>2016-10-31T10:43:38Z</time>
      </trkpt>
      <trkpt lat="43.33077" lon="5.22062">
        <ele>15.52</ele>
        <time>2016-10-31T10:44:05Z</time>
      </trkpt>
      <trkpt lat="43.33076" lon="5.22072">
        <ele>15.52</ele>
        <time>2016-10-31T10:44:26Z</time>
      </trkpt>
      <trkpt lat="43.33072" lon="5.22089">
        <ele>15.52</ele>
        <time>2016-10-31T10:44:44Z</time>
      </trkpt>
      <trkpt lat="43.33071" lon="5.22088">
        <ele>16.48</ele>
        <time>2016-10-31T10:44:48Z</time>
      </trkpt>
      <trkpt lat="43.33063" lon="5.22088">
        <ele>17.92</ele>
        <time>2016-10-31T10:45:04Z</time>
      </trkpt>
      <trkpt lat="43.33049" lon="5.2209">
        <ele>17.92</ele>
        <time>2016-10-31T10:45:22Z</time>
      </trkpt>
      <trkpt lat="43.33036" lon="5.2209">
        <ele>18.4</ele>
        <time>2016-10-31T10:45:40Z</time>
      </trkpt>
      <trkpt lat="43.33029" lon="5.22087">
        <ele>20.32</ele>
        <time>2016-10-31T10:45:53Z</time>
      </trkpt>
      <trkpt lat="43.33016" lon="5.22082">
        <ele>20.32</ele>
        <time>2016-10-31T10:46:12Z</time>
      </trkpt>
      <trkpt lat="43.33007" lon="5.2208">
        <ele>20.32</ele>
        <time>2016-10-31T10:46:27Z</time>
      </trkpt>
      <trkpt lat="43.32994" lon="5.22077">
        <ele>20.81</ele>
        <time>2016-10-31T10:46:44Z</time>
      </trkpt>
      <trkpt lat="43.32985" lon="5.22074">
        <ele>20.32</ele>
        <time>2016-10-31T10:47:03Z</time>
      </trkpt>
      <trkpt lat="43.32974" lon="5.2208">
        <ele>20.32</ele>
        <time>2016-10-31T10:47:19Z</time>
      </trkpt>
      <trkpt lat="43.32961" lon="5.22087">
        <ele>20.32</ele>
        <time>2016-10-31T10:47:37Z</time>
      </trkpt>
      <trkpt lat="43.32955" lon="5.22084">
        <ele>19.36</ele>
        <time>2016-10-31T10:47:48Z</time>
      </trkpt>
      <trkpt lat="43.32945" lon="5.22074">
        <ele>18.88</ele>
        <time>2016-10-31T10:48:07Z</time>
      </trkpt>
      <trkpt lat="43.32941" lon="5.22073">
        <ele>19.84</ele>
        <time>2016-10-31T10:48:13Z</time>
      </trkpt>
      <trkpt lat="43.32935" lon="5.22069">
        <ele>21.29</ele>
        <time>2016-10-31T10:48:26Z</time>
      </trkpt>
      <trkpt lat="43.32931" lon="5.22064">
        <ele>22.25</ele>
        <time>2016-10-31T10:48:38Z</time>
      </trkpt>
      <trkpt lat="43.32928" lon="5.22063">
        <ele>23.21</ele>
        <time>2016-10-31T10:48:52Z</time>
      </trkpt>
      <trkpt lat="43.32927" lon="5.22064">
        <ele>23.21</ele>
        <time>2016-10-31T10:49:12Z</time>
      </trkpt>
      <trkpt lat="43.32926" lon="5.22062">
        <ele>23.69</ele>
        <time>2016-10-31T10:49:27Z</time>
      </trkpt>
      <trkpt lat="43.32922" lon="5.2206">
        <ele>22.25</ele>
        <time>2016-10-31T10:49:46Z</time>
      </trkpt>
      <trkpt lat="43.32909" lon="5.22057">
        <ele>23.69</ele>
        <time>2016-10-31T10:50:03Z</time>
      </trkpt>
      <trkpt lat="43.32898" lon="5.22054">
        <ele>26.09</ele>
        <time>2016-10-31T10:50:20Z</time>
      </trkpt>
      <trkpt lat="43.32892" lon="5.22051">
        <ele>27.53</ele>
        <time>2016-10-31T10:50:35Z</time>
      </trkpt>
      <trkpt lat="43.32886" lon="5.22043">
        <ele>28.02</ele>
        <time>2016-10-31T10:50:56Z</time>
      </trkpt>
      <trkpt lat="43.32886" lon="5.22048">
        <ele>28.02</ele>
        <time>2016-10-31T10:51:14Z</time>
      </trkpt>
      <trkpt lat="43.32886" lon="5.22053">
        <ele>28.98</ele>
        <time>2016-10-31T10:51:28Z</time>
      </trkpt>
      <trkpt lat="43.32882" lon="5.22056">
        <ele>31.86</ele>
        <time>2016-10-31T10:51:46Z</time>
      </trkpt>
      <trkpt lat="43.3288" lon="5.22063">
        <ele>33.3</ele>
        <time>2016-10-31T10:51:58Z</time>
      </trkpt>
      <trkpt lat="43.3288" lon="5.22063">
        <ele>33.3</ele>
        <time>2016-10-31T10:52:20Z</time>
      </trkpt>
      <trkpt lat="43.32879" lon="5.22062">
        <ele>33.3</ele>
        <time>2016-10-31T10:52:49Z</time>
      </trkpt>
      <trkpt lat="43.3288" lon="5.22063">
        <ele>33.3</ele>
        <time>2016-10-31T10:53:12Z</time>
      </trkpt>
      <trkpt lat="43.3288" lon="5.22065">
        <ele>33.3</ele>
        <time>2016-10-31T10:53:35Z</time>
      </trkpt>
      <trkpt lat="43.3288" lon="5.2207">
        <ele>35.71</ele>
        <time>2016-10-31T10:53:51Z</time>
      </trkpt>
      <trkpt lat="43.32882" lon="5.22076">
        <ele>37.63</ele>
        <time>2016-10-31T10:54:02Z</time>
      </trkpt>
      <trkpt lat="43.3288" lon="5.22084">
        <ele>40.03</ele>
        <time>2016-10-31T10:54:15Z</time>
      </trkpt>
      <trkpt lat="43.32884" lon="5.22091">
        <ele>40.51</ele>
        <time>2016-10-31T10:54:27Z</time>
      </trkpt>
      <trkpt lat="43.32889" lon="5.22101">
        <ele>40.51</ele>
        <time>2016-10-31T10:54:40Z</time>
      </trkpt>
      <trkpt lat="43.32891" lon="5.22111">
        <ele>41.95</ele>
        <time>2016-10-31T10:54:55Z</time>
      </trkpt>
      <trkpt lat="43.32893" lon="5.22121">
        <ele>42.92</ele>
        <time>2016-10-31T10:55:08Z</time>
      </trkpt>
      <trkpt lat="43.32896" lon="5.22128">
        <ele>43.88</ele>
        <time>2016-10-31T10:55:22Z</time>
      </trkpt>
      <trkpt lat="43.32897" lon="5.22135">
        <ele>44.84</ele>
        <time>2016-10-31T10:55:34Z</time>
      </trkpt>
      <trkpt lat="43.32899" lon="5.22142">
        <ele>46.76</ele>
        <time>2016-10-31T10:55:47Z</time>
      </trkpt>
      <trkpt lat="43.32901" lon="5.22153">
        <ele>48.2</ele>
        <time>2016-10-31T10:56:02Z</time>
      </trkpt>
      <trkpt lat="43.32902" lon="5.22161">
        <ele>48.68</ele>
        <time>2016-10-31T10:56:14Z</time>
      </trkpt>
      <trkpt lat="43.32904" lon="5.2217">
        <ele>50.61</ele>
        <time>2016-10-31T10:56:29Z</time>
      </trkpt>
      <trkpt lat="43.32904" lon="5.22179">
        <ele>51.57</ele>
        <time>2016-10-31T10:56:43Z</time>
      </trkpt>
      <trkpt lat="43.32904" lon="5.22191">
        <ele>51.57</ele>
        <time>2016-10-31T10:56:53Z</time>
      </trkpt>
      <trkpt lat="43.32904" lon="5.2221">
        <ele>52.05</ele>
        <time>2016-10-31T10:57:11Z</time>
      </trkpt>
      <trkpt lat="43.32904" lon="5.22226">
        <ele>53.49</ele>
        <time>2016-10-31T10:57:24Z</time>
      </trkpt>
      <trkpt lat="43.32903" lon="5.22228">
        <ele>53.49</ele>
        <time>2016-10-31T10:57:38Z</time>
      </trkpt>
      <trkpt lat="43.32901" lon="5.22231">
        <ele>53.01</ele>
        <time>2016-10-31T10:58:01Z</time>
      </trkpt>
      <trkpt lat="43.32901" lon="5.22236">
        <ele>52.05</ele>
        <time>2016-10-31T10:58:14Z</time>
      </trkpt>
      <trkpt lat="43.32899" lon="5.22242">
        <ele>51.57</ele>
        <time>2016-10-31T10:58:31Z</time>
      </trkpt>
      <trkpt lat="43.32899" lon="5.22241">
        <ele>51.57</ele>
        <time>2016-10-31T10:58:58Z</time>
      </trkpt>
      <trkpt lat="43.32898" lon="5.22243">
        <ele>51.09</ele>
        <time>2016-10-31T10:59:20Z</time>
      </trkpt>
      <trkpt lat="43.32894" lon="5.22245">
        <ele>51.09</ele>
        <time>2016-10-31T10:59:37Z</time>
      </trkpt>
      <trkpt lat="43.32891" lon="5.22246">
        <ele>51.09</ele>
        <time>2016-10-31T10:59:51Z</time>
      </trkpt>
      <trkpt lat="43.32888" lon="5.22248">
        <ele>50.61</ele>
        <time>2016-10-31T11:00:04Z</time>
      </trkpt>
      <trkpt lat="43.32885" lon="5.22249">
        <ele>49.16</ele>
        <time>2016-10-31T11:00:16Z</time>
      </trkpt>
      <trkpt lat="43.32882" lon="5.22257">
        <ele>47.24</ele>
        <time>2016-10-31T11:00:30Z</time>
      </trkpt>
      <trkpt lat="43.3288" lon="5.22264">
        <ele>46.28</ele>
        <time>2016-10-31T11:00:38Z</time>
      </trkpt>
      <trkpt lat="43.32881" lon="5.22283">
        <ele>45.8</ele>
        <time>2016-10-31T11:00:55Z</time>
      </trkpt>
      <trkpt lat="43.32885" lon="5.22291">
        <ele>45.8</ele>
        <time>2016-10-31T11:01:09Z</time>
      </trkpt>
      <trkpt lat="43.32887" lon="5.22301">
        <ele>47.24</ele>
        <time>2016-10-31T11:01:19Z</time>
      </trkpt>
      <trkpt lat="43.32887" lon="5.22309">
        <ele>46.76</ele>
        <time>2016-10-31T11:01:31Z</time>
      </trkpt>
      <trkpt lat="43.32888" lon="5.22311">
        <ele>45.8</ele>
        <time>2016-10-31T11:01:34Z</time>
      </trkpt>
      <trkpt lat="43.3289" lon="5.2232">
        <ele>43.88</ele>
        <time>2016-10-31T11:01:48Z</time>
      </trkpt>
      <trkpt lat="43.32891" lon="5.2233">
        <ele>42.92</ele>
        <time>2016-10-31T11:02:01Z</time>
      </trkpt>
      <trkpt lat="43.3289" lon="5.22333">
        <ele>44.36</ele>
        <time>2016-10-31T11:02:06Z</time>
      </trkpt>
      <trkpt lat="43.32892" lon="5.22339">
        <ele>45.8</ele>
        <time>2016-10-31T11:02:20Z</time>
      </trkpt>
      <trkpt lat="43.32894" lon="5.22346">
        <ele>48.2</ele>
        <time>2016-10-31T11:02:34Z</time>
      </trkpt>
      <trkpt lat="43.32896" lon="5.22355">
        <ele>49.65</ele>
        <time>2016-10-31T11:02:49Z</time>
      </trkpt>
      <trkpt lat="43.32891" lon="5.22357">
        <ele>52.05</ele>
        <time>2016-10-31T11:03:03Z</time>
      </trkpt>
      <trkpt lat="43.32891" lon="5.22355">
        <ele>52.53</ele>
        <time>2016-10-31T11:03:16Z</time>
      </trkpt>
      <trkpt lat="43.32889" lon="5.22355">
        <ele>53.49</ele>
        <time>2016-10-31T11:03:29Z</time>
      </trkpt>
      <trkpt lat="43.32887" lon="5.22353">
        <ele>54.45</ele>
        <time>2016-10-31T11:03:42Z</time>
      </trkpt>
      <trkpt lat="43.32885" lon="5.22356">
        <ele>55.89</ele>
        <time>2016-10-31T11:03:56Z</time>
      </trkpt>
      <trkpt lat="43.32883" lon="5.2236">
        <ele>57.34</ele>
        <time>2016-10-31T11:04:08Z</time>
      </trkpt>
      <trkpt lat="43.32882" lon="5.22366">
        <ele>59.26</ele>
        <time>2016-10-31T11:04:21Z</time>
      </trkpt>
      <trkpt lat="43.32883" lon="5.22372">
        <ele>60.7</ele>
        <time>2016-10-31T11:04:33Z</time>
      </trkpt>
      <trkpt lat="43.32881" lon="5.22379">
        <ele>62.62</ele>
        <time>2016-10-31T11:04:46Z</time>
      </trkpt>
      <trkpt lat="43.3288" lon="5.22385">
        <ele>61.18</ele>
        <time>2016-10-31T11:05:01Z</time>
      </trkpt>
      <trkpt lat="43.32881" lon="5.22385">
        <ele>60.7</ele>
        <time>2016-10-31T11:05:13Z</time>
      </trkpt>
      <trkpt lat="43.32882" lon="5.22386">
        <ele>60.7</ele>
        <time>2016-10-31T11:05:33Z</time>
      </trkpt>
      <trkpt lat="43.32882" lon="5.22388">
        <ele>61.66</ele>
        <time>2016-10-31T11:05:50Z</time>
      </trkpt>
      <trkpt lat="43.32881" lon="5.22387">
        <ele>61.66</ele>
        <time>2016-10-31T11:06:09Z</time>
      </trkpt>
      <trkpt lat="43.32882" lon="5.22386">
        <ele>61.66</ele>
        <time>2016-10-31T11:06:31Z</time>
      </trkpt>
      <trkpt lat="43.32881" lon="5.22388">
        <ele>61.66</ele>
        <time>2016-10-31T11:06:53Z</time>
      </trkpt>
      <trkpt lat="43.3288" lon="5.22387">
        <ele>61.66</ele>
        <time>2016-10-31T11:07:28Z</time>
      </trkpt>
      <trkpt lat="43.32882" lon="5.22389">
        <ele>61.18</ele>
        <time>2016-10-31T11:08:03Z</time>
      </trkpt>
      <trkpt lat="43.3288" lon="5.22387">
        <ele>61.18</ele>
        <time>2016-10-31T11:08:33Z</time>
      </trkpt>
      <trkpt lat="43.32879" lon="5.22387">
        <ele>61.18</ele>
        <time>2016-10-31T11:08:57Z</time>
      </trkpt>
      <trkpt lat="43.32882" lon="5.22388">
        <ele>61.18</ele>
        <time>2016-10-31T11:09:21Z</time>
      </trkpt>
      <trkpt lat="43.32881" lon="5.22388">
        <ele>61.18</ele>
        <time>2016-10-31T11:09:47Z</time>
      </trkpt>
      <trkpt lat="43.32882" lon="5.2239">
        <ele>61.18</ele>
        <time>2016-10-31T11:10:03Z</time>
      </trkpt>
      <trkpt lat="43.32883" lon="5.22388">
        <ele>60.7</ele>
        <time>2016-10-31T11:10:23Z</time>
      </trkpt>
      <trkpt lat="43.32883" lon="5.2239">
        <ele>60.7</ele>
        <time>2016-10-31T11:10:50Z</time>
      </trkpt>
      <trkpt lat="43.32882" lon="5.22395">
        <ele>59.74</ele>
        <time>2016-10-31T11:10:56Z</time>
      </trkpt>
      <trkpt lat="43.32878" lon="5.22405">
        <ele>57.34</ele>
        <time>2016-10-31T11:11:12Z</time>
      </trkpt>
      <trkpt lat="43.32876" lon="5.22412">
        <ele>55.41</ele>
        <time>2016-10-31T11:11:27Z</time>
      </trkpt>
      <trkpt lat="43.32877" lon="5.22416">
        <ele>53.97</ele>
        <time>2016-10-31T11:11:38Z</time>
      </trkpt>
      <trkpt lat="43.32878" lon="5.22417">
        <ele>52.53</ele>
        <time>2016-10-31T11:11:50Z</time>
      </trkpt>
      <trkpt lat="43.32879" lon="5.22423">
        <ele>50.61</ele>
        <time>2016-10-31T11:12:03Z</time>
      </trkpt>
      <trkpt lat="43.32877" lon="5.22431">
        <ele>49.16</ele>
        <time>2016-10-31T11:12:14Z</time>
      </trkpt>
      <trkpt lat="43.32878" lon="5.22437">
        <ele>47.72</ele>
        <time>2016-10-31T11:12:29Z</time>
      </trkpt>
      <trkpt lat="43.32878" lon="5.22443">
        <ele>46.28</ele>
        <time>2016-10-31T11:12:41Z</time>
      </trkpt>
      <trkpt lat="43.32879" lon="5.22453">
        <ele>44.36</ele>
        <time>2016-10-31T11:12:56Z</time>
      </trkpt>
      <trkpt lat="43.3288" lon="5.22457">
        <ele>43.88</ele>
        <time>2016-10-31T11:13:00Z</time>
      </trkpt>
      <trkpt lat="43.3288" lon="5.22474">
        <ele>44.36</ele>
        <time>2016-10-31T11:13:17Z</time>
      </trkpt>
      <trkpt lat="43.32879" lon="5.22484">
        <ele>46.76</ele>
        <time>2016-10-31T11:13:29Z</time>
      </trkpt>
      <trkpt lat="43.3288" lon="5.22494">
        <ele>48.68</ele>
        <time>2016-10-31T11:13:44Z</time>
      </trkpt>
      <trkpt lat="43.32886" lon="5.22505">
        <ele>50.13</ele>
        <time>2016-10-31T11:13:58Z</time>
      </trkpt>
      <trkpt lat="43.32892" lon="5.22528">
        <ele>50.13</ele>
        <time>2016-10-31T11:14:17Z</time>
      </trkpt>
      <trkpt lat="43.3289" lon="5.22541">
        <ele>51.57</ele>
        <time>2016-10-31T11:14:31Z</time>
      </trkpt>
      <trkpt lat="43.32889" lon="5.22544">
        <ele>52.05</ele>
        <time>2016-10-31T11:14:44Z</time>
      </trkpt>
      <trkpt lat="43.3289" lon="5.22549">
        <ele>51.09</ele>
        <time>2016-10-31T11:14:57Z</time>
      </trkpt>
      <trkpt lat="43.3289" lon="5.22553">
        <ele>49.65</ele>
        <time>2016-10-31T11:15:12Z</time>
      </trkpt>
      <trkpt lat="43.3289" lon="5.22554">
        <ele>49.16</ele>
        <time>2016-10-31T11:15:28Z</time>
      </trkpt>
      <trkpt lat="43.32895" lon="5.22566">
        <ele>47.24</ele>
        <time>2016-10-31T11:15:44Z</time>
      </trkpt>
      <trkpt lat="43.32899" lon="5.22583">
        <ele>45.32</ele>
        <time>2016-10-31T11:16:02Z</time>
      </trkpt>
      <trkpt lat="43.32905" lon="5.226">
        <ele>44.84</ele>
        <time>2016-10-31T11:16:20Z</time>
      </trkpt>
      <trkpt lat="43.3291" lon="5.22612">
        <ele>44.36</ele>
        <time>2016-10-31T11:16:35Z</time>
      </trkpt>
      <trkpt lat="43.32915" lon="5.2262">
        <ele>42.92</ele>
        <time>2016-10-31T11:16:49Z</time>
      </trkpt>
      <trkpt lat="43.32924" lon="5.22634">
        <ele>41.47</ele>
        <time>2016-10-31T11:17:07Z</time>
      </trkpt>
      <trkpt lat="43.32932" lon="5.22642">
        <ele>40.99</ele>
        <time>2016-10-31T11:17:21Z</time>
      </trkpt>
      <trkpt lat="43.32939" lon="5.22655">
        <ele>40.99</ele>
        <time>2016-10-31T11:17:35Z</time>
      </trkpt>
      <trkpt lat="43.32945" lon="5.22673">
        <ele>42.92</ele>
        <time>2016-10-31T11:17:52Z</time>
      </trkpt>
      <trkpt lat="43.32944" lon="5.22692">
        <ele>45.8</ele>
        <time>2016-10-31T11:18:09Z</time>
      </trkpt>
      <trkpt lat="43.32941" lon="5.227">
        <ele>48.68</ele>
        <time>2016-10-31T11:18:24Z</time>
      </trkpt>
      <trkpt lat="43.32941" lon="5.22703">
        <ele>50.13</ele>
        <time>2016-10-31T11:18:37Z</time>
      </trkpt>
      <trkpt lat="43.3294" lon="5.22708">
        <ele>51.57</ele>
        <time>2016-10-31T11:18:47Z</time>
      </trkpt>
      <trkpt lat="43.32939" lon="5.22714">
        <ele>52.53</ele>
        <time>2016-10-31T11:18:59Z</time>
      </trkpt>
      <trkpt lat="43.3294" lon="5.2272">
        <ele>53.01</ele>
        <time>2016-10-31T11:19:12Z</time>
      </trkpt>
      <trkpt lat="43.32941" lon="5.22725">
        <ele>53.49</ele>
        <time>2016-10-31T11:19:34Z</time>
      </trkpt>
      <trkpt lat="43.32942" lon="5.22729">
        <ele>52.05</ele>
        <time>2016-10-31T11:19:40Z</time>
      </trkpt>
      <trkpt lat="43.3295" lon="5.22743">
        <ele>50.13</ele>
        <time>2016-10-31T11:19:58Z</time>
      </trkpt>
      <trkpt lat="43.32949" lon="5.22751">
        <ele>49.16</ele>
        <time>2016-10-31T11:20:07Z</time>
      </trkpt>
      <trkpt lat="43.32949" lon="5.22754">
        <ele>48.68</ele>
        <time>2016-10-31T11:20:09Z</time>
      </trkpt>
      <trkpt lat="43.32949" lon="5.22766">
        <ele>50.13</ele>
        <time>2016-10-31T11:20:21Z</time>
      </trkpt>
      <trkpt lat="43.32952" lon="5.22772">
        <ele>52.05</ele>
        <time>2016-10-31T11:20:35Z</time>
      </trkpt>
      <trkpt lat="43.32946" lon="5.22774">
        <ele>53.01</ele>
        <time>2016-10-31T11:20:50Z</time>
      </trkpt>
      <trkpt lat="43.32941" lon="5.22784">
        <ele>54.45</ele>
        <time>2016-10-31T11:21:04Z</time>
      </trkpt>
      <trkpt lat="43.3294" lon="5.22792">
        <ele>56.37</ele>
        <time>2016-10-31T11:21:17Z</time>
      </trkpt>
      <trkpt lat="43.3294" lon="5.22805">
        <ele>57.34</ele>
        <time>2016-10-31T11:21:31Z</time>
      </trkpt>
      <trkpt lat="43.3294" lon="5.22816">
        <ele>59.26</ele>
        <time>2016-10-31T11:21:45Z</time>
      </trkpt>
      <trkpt lat="43.32936" lon="5.22824">
        <ele>60.22</ele>
        <time>2016-10-31T11:21:57Z</time>
      </trkpt>
      <trkpt lat="43.32934" lon="5.22838">
        <ele>61.66</ele>
        <time>2016-10-31T11:22:13Z</time>
      </trkpt>
      <trkpt lat="43.32934" lon="5.22851">
        <ele>61.66</ele>
        <time>2016-10-31T11:22:28Z</time>
      </trkpt>
      <trkpt lat="43.32934" lon="5.22855">
        <ele>61.66</ele>
        <time>2016-10-31T11:22:43Z</time>
      </trkpt>
      <trkpt lat="43.32933" lon="5.22854">
        <ele>61.66</ele>
        <time>2016-10-31T11:23:03Z</time>
      </trkpt>
      <trkpt lat="43.32934" lon="5.22856">
        <ele>61.66</ele>
        <time>2016-10-31T11:23:26Z</time>
      </trkpt>
      <trkpt lat="43.32934" lon="5.22856">
        <ele>61.66</ele>
        <time>2016-10-31T11:23:39Z</time>
      </trkpt>
      <trkpt lat="43.32932" lon="5.22858">
        <ele>61.66</ele>
        <time>2016-10-31T11:23:58Z</time>
      </trkpt>
      <trkpt lat="43.32933" lon="5.22859">
        <ele>59.74</ele>
        <time>2016-10-31T11:24:11Z</time>
      </trkpt>
      <trkpt lat="43.3293" lon="5.22859">
        <ele>58.78</ele>
        <time>2016-10-31T11:24:26Z</time>
      </trkpt>
      <trkpt lat="43.32934" lon="5.22863">
        <ele>57.82</ele>
        <time>2016-10-31T11:24:41Z</time>
      </trkpt>
      <trkpt lat="43.32938" lon="5.22864">
        <ele>57.82</ele>
        <time>2016-10-31T11:24:56Z</time>
      </trkpt>
      <trkpt lat="43.32941" lon="5.22868">
        <ele>55.89</ele>
        <time>2016-10-31T11:25:11Z</time>
      </trkpt>
      <trkpt lat="43.32944" lon="5.2287">
        <ele>55.89</ele>
        <time>2016-10-31T11:25:25Z</time>
      </trkpt>
      <trkpt lat="43.32947" lon="5.22871">
        <ele>54.45</ele>
        <time>2016-10-31T11:25:36Z</time>
      </trkpt>
      <trkpt lat="43.32951" lon="5.22875">
        <ele>52.53</ele>
        <time>2016-10-31T11:25:49Z</time>
      </trkpt>
      <trkpt lat="43.32952" lon="5.22882">
        <ele>51.09</ele>
        <time>2016-10-31T11:26:04Z</time>
      </trkpt>
      <trkpt lat="43.32954" lon="5.22889">
        <ele>48.68</ele>
        <time>2016-10-31T11:26:22Z</time>
      </trkpt>
      <trkpt lat="43.32957" lon="5.22903">
        <ele>47.24</ele>
        <time>2016-10-31T11:26:40Z</time>
      </trkpt>
      <trkpt lat="43.32961" lon="5.22918">
        <ele>46.28</ele>
        <time>2016-10-31T11:26:56Z</time>
      </trkpt>
      <trkpt lat="43.32966" lon="5.2293">
        <ele>44.84</ele>
        <time>2016-10-31T11:27:11Z</time>
      </trkpt>
      <trkpt lat="43.32971" lon="5.22936">
        <ele>42.44</ele>
        <time>2016-10-31T11:27:25Z</time>
      </trkpt>
      <trkpt lat="43.32972" lon="5.22942">
        <ele>42.44</ele>
        <time>2016-10-31T11:27:40Z</time>
      </trkpt>
      <trkpt lat="43.32972" lon="5.22942">
        <ele>42.44</ele>
        <time>2016-10-31T11:28:04Z</time>
      </trkpt>
      <trkpt lat="43.32972" lon="5.22941">
        <ele>42.44</ele>
        <time>2016-10-31T11:28:16Z</time>
      </trkpt>
      <trkpt lat="43.32972" lon="5.22942">
        <ele>40.99</ele>
        <time>2016-10-31T11:28:33Z</time>
      </trkpt>
      <trkpt lat="43.32969" lon="5.22944">
        <ele>40.99</ele>
        <time>2016-10-31T11:28:54Z</time>
      </trkpt>
      <trkpt lat="43.32972" lon="5.2294">
        <ele>40.99</ele>
        <time>2016-10-31T11:29:17Z</time>
      </trkpt>
      <trkpt lat="43.32971" lon="5.2294">
        <ele>40.99</ele>
        <time>2016-10-31T11:29:48Z</time>
      </trkpt>
      <trkpt lat="43.32972" lon="5.22939">
        <ele>40.99</ele>
        <time>2016-10-31T11:30:22Z</time>
      </trkpt>
      <trkpt lat="43.32971" lon="5.22941">
        <ele>40.99</ele>
        <time>2016-10-31T11:30:49Z</time>
      </trkpt>
      <trkpt lat="43.32972" lon="5.22941">
        <ele>40.99</ele>
        <time>2016-10-31T11:31:26Z</time>
      </trkpt>
      <trkpt lat="43.32973" lon="5.22941">
        <ele>40.51</ele>
        <time>2016-10-31T11:32:01Z</time>
      </trkpt>
      <trkpt lat="43.32972" lon="5.22941">
        <ele>40.51</ele>
        <time>2016-10-31T11:32:36Z</time>
      </trkpt>
      <trkpt lat="43.32971" lon="5.2294">
        <ele>40.51</ele>
        <time>2016-10-31T11:33:11Z</time>
      </trkpt>
      <trkpt lat="43.32971" lon="5.22941">
        <ele>40.99</ele>
        <time>2016-10-31T11:34:00Z</time>
      </trkpt>
      <trkpt lat="43.32971" lon="5.22941">
        <ele>40.99</ele>
        <time>2016-10-31T11:34:47Z</time>
      </trkpt>
      <trkpt lat="43.32973" lon="5.22941">
        <ele>40.99</ele>
        <time>2016-10-31T11:35:27Z</time>
      </trkpt>
      <trkpt lat="43.32973" lon="5.22941">
        <ele>40.99</ele>
        <time>2016-10-31T11:36:04Z</time>
      </trkpt>
      <trkpt lat="43.32973" lon="5.22943">
        <ele>40.99</ele>
        <time>2016-10-31T11:36:39Z</time>
      </trkpt>
      <trkpt lat="43.32971" lon="5.22942">
        <ele>40.99</ele>
        <time>2016-10-31T11:37:02Z</time>
      </trkpt>
      <trkpt lat="43.32971" lon="5.22944">
        <ele>40.51</ele>
        <time>2016-10-31T11:37:21Z</time>
      </trkpt>
      <trkpt lat="43.32972" lon="5.22942">
        <ele>41.95</ele>
        <time>2016-10-31T11:37:55Z</time>
      </trkpt>
      <trkpt lat="43.32973" lon="5.22939">
        <ele>41.95</ele>
        <time>2016-10-31T11:38:30Z</time>
      </trkpt>
      <trkpt lat="43.3297" lon="5.22943">
        <ele>41.95</ele>
        <time>2016-10-31T11:39:12Z</time>
      </trkpt>
      <trkpt lat="43.32969" lon="5.22946">
        <ele>41.95</ele>
        <time>2016-10-31T11:40:03Z</time>
      </trkpt>
      <trkpt lat="43.32969" lon="5.22945">
        <ele>41.95</ele>
        <time>2016-10-31T11:40:52Z</time>
      </trkpt>
      <trkpt lat="43.32969" lon="5.22945">
        <ele>42.44</ele>
        <time>2016-10-31T11:41:40Z</time>
      </trkpt>
      <trkpt lat="43.32972" lon="5.22942">
        <ele>42.44</ele>
        <time>2016-10-31T11:42:28Z</time>
      </trkpt>
      <trkpt lat="43.32972" lon="5.22942">
        <ele>42.44</ele>
        <time>2016-10-31T11:43:18Z</time>
      </trkpt>
      <trkpt lat="43.32972" lon="5.22944">
        <ele>42.44</ele>
        <time>2016-10-31T11:43:56Z</time>
      </trkpt>
      <trkpt lat="43.3297" lon="5.22942">
        <ele>42.44</ele>
        <time>2016-10-31T11:44:33Z</time>
      </trkpt>
      <trkpt lat="43.3297" lon="5.22943">
        <ele>42.44</ele>
        <time>2016-10-31T11:45:17Z</time>
      </trkpt>
      <trkpt lat="43.3297" lon="5.22944">
        <ele>42.44</ele>
        <time>2016-10-31T11:45:53Z</time>
      </trkpt>
      <trkpt lat="43.3297" lon="5.22941">
        <ele>42.44</ele>
        <time>2016-10-31T11:46:35Z</time>
      </trkpt>
      <trkpt lat="43.32972" lon="5.2294">
        <ele>42.44</ele>
        <time>2016-10-31T11:47:08Z</time>
      </trkpt>
      <trkpt lat="43.3297" lon="5.22939">
        <ele>41.95</ele>
        <time>2016-10-31T11:47:45Z</time>
      </trkpt>
      <trkpt lat="43.32971" lon="5.22939">
        <ele>41.95</ele>
        <time>2016-10-31T11:48:24Z</time>
      </trkpt>
      <trkpt lat="43.32972" lon="5.22939">
        <ele>41.95</ele>
        <time>2016-10-31T11:49:00Z</time>
      </trkpt>
      <trkpt lat="43.3297" lon="5.2294">
        <ele>41.95</ele>
        <time>2016-10-31T11:49:31Z</time>
      </trkpt>
      <trkpt lat="43.32969" lon="5.22941">
        <ele>41.95</ele>
        <time>2016-10-31T11:50:06Z</time>
      </trkpt>
      <trkpt lat="43.32971" lon="5.2294">
        <ele>41.95</ele>
        <time>2016-10-31T11:50:39Z</time>
      </trkpt>
      <trkpt lat="43.32971" lon="5.2294">
        <ele>41.47</ele>
        <time>2016-10-31T11:51:10Z</time>
      </trkpt>
      <trkpt lat="43.32971" lon="5.22939">
        <ele>41.47</ele>
        <time>2016-10-31T11:51:41Z</time>
      </trkpt>
      <trkpt lat="43.32972" lon="5.22938">
        <ele>41.47</ele>
        <time>2016-10-31T11:52:18Z</time>
      </trkpt>
      <trkpt lat="43.32972" lon="5.2294">
        <ele>41.47</ele>
        <time>2016-10-31T11:52:52Z</time>
      </trkpt>
      <trkpt lat="43.32972" lon="5.22938">
        <ele>41.47</ele>
        <time>2016-10-31T11:53:25Z</time>
      </trkpt>
      <trkpt lat="43.32971" lon="5.2294">
        <ele>41.47</ele>
        <time>2016-10-31T11:53:43Z</time>
      </trkpt>
      <trkpt lat="43.32975" lon="5.22939">
        <ele>41.47</ele>
        <time>2016-10-31T11:54:08Z</time>
      </trkpt>
      <trkpt lat="43.32975" lon="5.22934">
        <ele>41.47</ele>
        <time>2016-10-31T11:54:33Z</time>
      </trkpt>
      <trkpt lat="43.32978" lon="5.22934">
        <ele>40.99</ele>
        <time>2016-10-31T11:55:01Z</time>
      </trkpt>
      <trkpt lat="43.32977" lon="5.22931">
        <ele>40.99</ele>
        <time>2016-10-31T11:55:31Z</time>
      </trkpt>
      <trkpt lat="43.32977" lon="5.22929">
        <ele>40.99</ele>
        <time>2016-10-31T11:56:03Z</time>
      </trkpt>
      <trkpt lat="43.32978" lon="5.22931">
        <ele>40.99</ele>
        <time>2016-10-31T11:56:33Z</time>
      </trkpt>
      <trkpt lat="43.32978" lon="5.22932">
        <ele>40.99</ele>
        <time>2016-10-31T11:57:02Z</time>
      </trkpt>
      <trkpt lat="43.32978" lon="5.22929">
        <ele>40.51</ele>
        <time>2016-10-31T11:57:29Z</time>
      </trkpt>
      <trkpt lat="43.32977" lon="5.22933">
        <ele>40.51</ele>
        <time>2016-10-31T11:57:52Z</time>
      </trkpt>
      <trkpt lat="43.32975" lon="5.22935">
        <ele>40.51</ele>
        <time>2016-10-31T11:58:27Z</time>
      </trkpt>
      <trkpt lat="43.32975" lon="5.22935">
        <ele>40.51</ele>
        <time>2016-10-31T11:58:59Z</time>
      </trkpt>
      <trkpt lat="43.32975" lon="5.22937">
        <ele>40.51</ele>
        <time>2016-10-31T11:59:28Z</time>
      </trkpt>
      <trkpt lat="43.32975" lon="5.22938">
        <ele>39.55</ele>
        <time>2016-10-31T11:59:43Z</time>
      </trkpt>
      <trkpt lat="43.32976" lon="5.22939">
        <ele>39.55</ele>
        <time>2016-10-31T12:00:19Z</time>
      </trkpt>
      <trkpt lat="43.32974" lon="5.22939">
        <ele>38.59</ele>
        <time>2016-10-31T12:00:51Z</time>
      </trkpt>
      <trkpt lat="43.32973" lon="5.2294">
        <ele>40.99</ele>
        <time>2016-10-31T12:01:13Z</time>
      </trkpt>
      <trkpt lat="43.32973" lon="5.2294">
        <ele>40.99</ele>
        <time>2016-10-31T12:01:44Z</time>
      </trkpt>
      <trkpt lat="43.32974" lon="5.2294">
        <ele>40.99</ele>
        <time>2016-10-31T12:01:54Z</time>
      </trkpt>
      <trkpt lat="43.32972" lon="5.22942">
        <ele>40.03</ele>
        <time>2016-10-31T12:02:06Z</time>
      </trkpt>
      <trkpt lat="43.32972" lon="5.22943">
        <ele>40.03</ele>
        <time>2016-10-31T12:02:32Z</time>
      </trkpt>
      <trkpt lat="43.32972" lon="5.22943">
        <ele>40.03</ele>
        <time>2016-10-31T12:03:05Z</time>
      </trkpt>
      <trkpt lat="43.32972" lon="5.22943">
        <ele>40.03</ele>
        <time>2016-10-31T12:03:33Z</time>
      </trkpt>
      <trkpt lat="43.32971" lon="5.22945">
        <ele>40.03</ele>
        <time>2016-10-31T12:04:01Z</time>
      </trkpt>
      <trkpt lat="43.32971" lon="5.22941">
        <ele>40.03</ele>
        <time>2016-10-31T12:04:36Z</time>
      </trkpt>
      <trkpt lat="43.32971" lon="5.22941">
        <ele>40.03</ele>
        <time>2016-10-31T12:05:10Z</time>
      </trkpt>
      <trkpt lat="43.32972" lon="5.22941">
        <ele>40.03</ele>
        <time>2016-10-31T12:05:43Z</time>
      </trkpt>
      <trkpt lat="43.32973" lon="5.2294">
        <ele>40.03</ele>
        <time>2016-10-31T12:06:14Z</time>
      </trkpt>
      <trkpt lat="43.32973" lon="5.2294">
        <ele>40.03</ele>
        <time>2016-10-31T12:06:49Z</time>
      </trkpt>
      <trkpt lat="43.32972" lon="5.2294">
        <ele>40.99</ele>
        <time>2016-10-31T12:07:10Z</time>
      </trkpt>
      <trkpt lat="43.3297" lon="5.22941">
        <ele>40.99</ele>
        <time>2016-10-31T12:07:38Z</time>
      </trkpt>
      <trkpt lat="43.32972" lon="5.2294">
        <ele>40.99</ele>
        <time>2016-10-31T12:08:06Z</time>
      </trkpt>
      <trkpt lat="43.32973" lon="5.2294">
        <ele>40.99</ele>
        <time>2016-10-31T12:08:31Z</time>
      </trkpt>
      <trkpt lat="43.32971" lon="5.22942">
        <ele>40.99</ele>
        <time>2016-10-31T12:09:04Z</time>
      </trkpt>
      <trkpt lat="43.3297" lon="5.22944">
        <ele>40.99</ele>
        <time>2016-10-31T12:09:37Z</time>
      </trkpt>
      <trkpt lat="43.32971" lon="5.22944">
        <ele>40.99</ele>
        <time>2016-10-31T12:10:13Z</time>
      </trkpt>
      <trkpt lat="43.32971" lon="5.22944">
        <ele>41.47</ele>
        <time>2016-10-31T12:10:29Z</time>
      </trkpt>
      <trkpt lat="43.32972" lon="5.22942">
        <ele>40.99</ele>
        <time>2016-10-31T12:10:49Z</time>
      </trkpt>
      <trkpt lat="43.32972" lon="5.22941">
        <ele>40.99</ele>
        <time>2016-10-31T12:11:05Z</time>
      </trkpt>
      <trkpt lat="43.32973" lon="5.2294">
        <ele>41.47</ele>
        <time>2016-10-31T12:11:26Z</time>
      </trkpt>
      <trkpt lat="43.32974" lon="5.2294">
        <ele>41.47</ele>
        <time>2016-10-31T12:11:52Z</time>
      </trkpt>
      <trkpt lat="43.32977" lon="5.22938">
        <ele>41.47</ele>
        <time>2016-10-31T12:12:09Z</time>
      </trkpt>
      <trkpt lat="43.32984" lon="5.22945">
        <ele>41.47</ele>
        <time>2016-10-31T12:12:22Z</time>
      </trkpt>
      <trkpt lat="43.32992" lon="5.22945">
        <ele>40.51</ele>
        <time>2016-10-31T12:12:35Z</time>
      </trkpt>
      <trkpt lat="43.32999" lon="5.22954">
        <ele>38.11</ele>
        <time>2016-10-31T12:12:51Z</time>
      </trkpt>
      <trkpt lat="43.3301" lon="5.22956">
        <ele>36.67</ele>
        <time>2016-10-31T12:13:09Z</time>
      </trkpt>
      <trkpt lat="43.33018" lon="5.22966">
        <ele>35.23</ele>
        <time>2016-10-31T12:13:23Z</time>
      </trkpt>
      <trkpt lat="43.33024" lon="5.22974">
        <ele>32.82</ele>
        <time>2016-10-31T12:13:40Z</time>
      </trkpt>
      <trkpt lat="43.33029" lon="5.22979">
        <ele>30.9</ele>
        <time>2016-10-31T12:13:55Z</time>
      </trkpt>
      <trkpt lat="43.3303" lon="5.22989">
        <ele>29.94</ele>
        <time>2016-10-31T12:14:11Z</time>
      </trkpt>
      <trkpt lat="43.33025" lon="5.22997">
        <ele>31.38</ele>
        <time>2016-10-31T12:14:23Z</time>
      </trkpt>
      <trkpt lat="43.33024" lon="5.23">
        <ele>31.38</ele>
        <time>2016-10-31T12:14:25Z</time>
      </trkpt>
      <trkpt lat="43.33021" lon="5.23015">
        <ele>31.38</ele>
        <time>2016-10-31T12:14:38Z</time>
      </trkpt>
      <trkpt lat="43.33021" lon="5.2302">
        <ele>31.38</ele>
        <time>2016-10-31T12:14:42Z</time>
      </trkpt>
      <trkpt lat="43.33019" lon="5.23031">
        <ele>31.38</ele>
        <time>2016-10-31T12:14:52Z</time>
      </trkpt>
      <trkpt lat="43.33021" lon="5.23046">
        <ele>33.3</ele>
        <time>2016-10-31T12:15:09Z</time>
      </trkpt>
      <trkpt lat="43.3302" lon="5.2305">
        <ele>34.74</ele>
        <time>2016-10-31T12:15:21Z</time>
      </trkpt>
      <trkpt lat="43.33022" lon="5.23064">
        <ele>35.23</ele>
        <time>2016-10-31T12:15:34Z</time>
      </trkpt>
      <trkpt lat="43.33027" lon="5.23075">
        <ele>37.63</ele>
        <time>2016-10-31T12:15:50Z</time>
      </trkpt>
      <trkpt lat="43.3303" lon="5.23085">
        <ele>38.59</ele>
        <time>2016-10-31T12:16:04Z</time>
      </trkpt>
      <trkpt lat="43.33034" lon="5.23103">
        <ele>39.07</ele>
        <time>2016-10-31T12:16:19Z</time>
      </trkpt>
      <trkpt lat="43.33036" lon="5.23118">
        <ele>41.47</ele>
        <time>2016-10-31T12:16:35Z</time>
      </trkpt>
      <trkpt lat="43.33041" lon="5.23129">
        <ele>43.4</ele>
        <time>2016-10-31T12:16:49Z</time>
      </trkpt>
      <trkpt lat="43.33049" lon="5.23134">
        <ele>45.8</ele>
        <time>2016-10-31T12:17:05Z</time>
      </trkpt>
      <trkpt lat="43.33054" lon="5.23132">
        <ele>46.28</ele>
        <time>2016-10-31T12:17:25Z</time>
      </trkpt>
      <trkpt lat="43.33064" lon="5.23133">
        <ele>46.28</ele>
        <time>2016-10-31T12:17:41Z</time>
      </trkpt>
      <trkpt lat="43.33069" lon="5.23146">
        <ele>46.28</ele>
        <time>2016-10-31T12:17:58Z</time>
      </trkpt>
      <trkpt lat="43.33072" lon="5.23153">
        <ele>46.76</ele>
        <time>2016-10-31T12:18:18Z</time>
      </trkpt>
      <trkpt lat="43.33073" lon="5.23154">
        <ele>46.76</ele>
        <time>2016-10-31T12:18:19Z</time>
      </trkpt>
      <trkpt lat="43.33078" lon="5.23169">
        <ele>46.28</ele>
        <time>2016-10-31T12:18:35Z</time>
      </trkpt>
      <trkpt lat="43.33083" lon="5.23181">
        <ele>45.32</ele>
        <time>2016-10-31T12:18:46Z</time>
      </trkpt>
      <trkpt lat="43.33093" lon="5.23193">
        <ele>46.76</ele>
        <time>2016-10-31T12:19:03Z</time>
      </trkpt>
      <trkpt lat="43.331" lon="5.23204">
        <ele>48.68</ele>
        <time>2016-10-31T12:19:18Z</time>
      </trkpt>
      <trkpt lat="43.33109" lon="5.23215">
        <ele>50.61</ele>
        <time>2016-10-31T12:19:34Z</time>
      </trkpt>
      <trkpt lat="43.33114" lon="5.23223">
        <ele>52.05</ele>
        <time>2016-10-31T12:19:48Z</time>
      </trkpt>
      <trkpt lat="43.33117" lon="5.23231">
        <ele>54.45</ele>
        <time>2016-10-31T12:20:01Z</time>
      </trkpt>
      <trkpt lat="43.3312" lon="5.23242">
        <ele>56.86</ele>
        <time>2016-10-31T12:20:15Z</time>
      </trkpt>
      <trkpt lat="43.33122" lon="5.23251">
        <ele>58.78</ele>
        <time>2016-10-31T12:20:30Z</time>
      </trkpt>
      <trkpt lat="43.33122" lon="5.23254">
        <ele>60.22</ele>
        <time>2016-10-31T12:20:41Z</time>
      </trkpt>
      <trkpt lat="43.33121" lon="5.23258">
        <ele>61.66</ele>
        <time>2016-10-31T12:20:54Z</time>
      </trkpt>
      <trkpt lat="43.33123" lon="5.23264">
        <ele>63.58</ele>
        <time>2016-10-31T12:21:06Z</time>
      </trkpt>
      <trkpt lat="43.33125" lon="5.23275">
        <ele>64.55</ele>
        <time>2016-10-31T12:21:21Z</time>
      </trkpt>
      <trkpt lat="43.33128" lon="5.23283">
        <ele>63.1</ele>
        <time>2016-10-31T12:21:32Z</time>
      </trkpt>
      <trkpt lat="43.33127" lon="5.23296">
        <ele>63.1</ele>
        <time>2016-10-31T12:21:43Z</time>
      </trkpt>
      <trkpt lat="43.33126" lon="5.23315">
        <ele>64.55</ele>
        <time>2016-10-31T12:22:00Z</time>
      </trkpt>
      <trkpt lat="43.33126" lon="5.23316">
        <ele>65.03</ele>
        <time>2016-10-31T12:22:19Z</time>
      </trkpt>
      <trkpt lat="43.33125" lon="5.23317">
        <ele>65.03</ele>
        <time>2016-10-31T12:22:40Z</time>
      </trkpt>
      <trkpt lat="43.33123" lon="5.23316">
        <ele>65.03</ele>
        <time>2016-10-31T12:23:03Z</time>
      </trkpt>
      <trkpt lat="43.33126" lon="5.23317">
        <ele>65.03</ele>
        <time>2016-10-31T12:23:27Z</time>
      </trkpt>
      <trkpt lat="43.33127" lon="5.23317">
        <ele>65.03</ele>
        <time>2016-10-31T12:23:55Z</time>
      </trkpt>
      <trkpt lat="43.33128" lon="5.2332">
        <ele>63.58</ele>
        <time>2016-10-31T12:24:06Z</time>
      </trkpt>
      <trkpt lat="43.33127" lon="5.23322">
        <ele>62.14</ele>
        <time>2016-10-31T12:24:19Z</time>
      </trkpt>
      <trkpt lat="43.33127" lon="5.23326">
        <ele>61.18</ele>
        <time>2016-10-31T12:24:31Z</time>
      </trkpt>
      <trkpt lat="43.33131" lon="5.23328">
        <ele>59.74</ele>
        <time>2016-10-31T12:24:45Z</time>
      </trkpt>
      <trkpt lat="43.33137" lon="5.23324">
        <ele>57.82</ele>
        <time>2016-10-31T12:24:59Z</time>
      </trkpt>
      <trkpt lat="43.33143" lon="5.23321">
        <ele>55.89</ele>
        <time>2016-10-31T12:25:15Z</time>
      </trkpt>
      <trkpt lat="43.33146" lon="5.23323">
        <ele>53.49</ele>
        <time>2016-10-31T12:25:32Z</time>
      </trkpt>
      <trkpt lat="43.33147" lon="5.23329">
        <ele>51.57</ele>
        <time>2016-10-31T12:25:50Z</time>
      </trkpt>
      <trkpt lat="43.33147" lon="5.23336">
        <ele>49.65</ele>
        <time>2016-10-31T12:26:06Z</time>
      </trkpt>
      <trkpt lat="43.33148" lon="5.2335">
        <ele>46.76</ele>
        <time>2016-10-31T12:26:25Z</time>
      </trkpt>
      <trkpt lat="43.33145" lon="5.23366">
        <ele>43.4</ele>
        <time>2016-10-31T12:26:49Z</time>
      </trkpt>
      <trkpt lat="43.33146" lon="5.23377">
        <ele>40.99</ele>
        <time>2016-10-31T12:27:04Z</time>
      </trkpt>
      <trkpt lat="43.33147" lon="5.23389">
        <ele>39.07</ele>
        <time>2016-10-31T12:27:22Z</time>
      </trkpt>
      <trkpt lat="43.33144" lon="5.23406">
        <ele>38.11</ele>
        <time>2016-10-31T12:27:37Z</time>
      </trkpt>
      <trkpt lat="43.33153" lon="5.23431">
        <ele>38.11</ele>
        <time>2016-10-31T12:27:56Z</time>
      </trkpt>
      <trkpt lat="43.33162" lon="5.23439">
        <ele>36.67</ele>
        <time>2016-10-31T12:28:12Z</time>
      </trkpt>
      <trkpt lat="43.3317" lon="5.23452">
        <ele>36.67</ele>
        <time>2016-10-31T12:28:29Z</time>
      </trkpt>
      <trkpt lat="43.33174" lon="5.23462">
        <ele>36.19</ele>
        <time>2016-10-31T12:28:43Z</time>
      </trkpt>
      <trkpt lat="43.33169" lon="5.23474">
        <ele>37.63</ele>
        <time>2016-10-31T12:28:57Z</time>
      </trkpt>
      <trkpt lat="43.33163" lon="5.23487">
        <ele>38.11</ele>
        <time>2016-10-31T12:29:13Z</time>
      </trkpt>
      <trkpt lat="43.33165" lon="5.23505">
        <ele>39.07</ele>
        <time>2016-10-31T12:29:27Z</time>
      </trkpt>
      <trkpt lat="43.3317" lon="5.23522">
        <ele>40.99</ele>
        <time>2016-10-31T12:29:43Z</time>
      </trkpt>
      <trkpt lat="43.33175" lon="5.23539">
        <ele>42.44</ele>
        <time>2016-10-31T12:29:59Z</time>
      </trkpt>
      <trkpt lat="43.33181" lon="5.23555">
        <ele>43.4</ele>
        <time>2016-10-31T12:30:14Z</time>
      </trkpt>
      <trkpt lat="43.33187" lon="5.23579">
        <ele>44.84</ele>
        <time>2016-10-31T12:30:34Z</time>
      </trkpt>
      <trkpt lat="43.33191" lon="5.23594">
        <ele>47.72</ele>
        <time>2016-10-31T12:30:50Z</time>
      </trkpt>
      <trkpt lat="43.33195" lon="5.23611">
        <ele>49.16</ele>
        <time>2016-10-31T12:31:07Z</time>
      </trkpt>
      <trkpt lat="43.33201" lon="5.2363">
        <ele>47.24</ele>
        <time>2016-10-31T12:31:25Z</time>
      </trkpt>
      <trkpt lat="43.33205" lon="5.2364">
        <ele>45.8</ele>
        <time>2016-10-31T12:31:42Z</time>
      </trkpt>
      <trkpt lat="43.3321" lon="5.23644">
        <ele>44.36</ele>
        <time>2016-10-31T12:31:56Z</time>
      </trkpt>
      <trkpt lat="43.33215" lon="5.23641">
        <ele>42.44</ele>
        <time>2016-10-31T12:32:11Z</time>
      </trkpt>
      <trkpt lat="43.33214" lon="5.23645">
        <ele>40.99</ele>
        <time>2016-10-31T12:32:27Z</time>
      </trkpt>
      <trkpt lat="43.33214" lon="5.23649">
        <ele>40.03</ele>
        <time>2016-10-31T12:32:44Z</time>
      </trkpt>
      <trkpt lat="43.33213" lon="5.2366">
        <ele>38.59</ele>
        <time>2016-10-31T12:33:02Z</time>
      </trkpt>
      <trkpt lat="43.33214" lon="5.23665">
        <ele>36.67</ele>
        <time>2016-10-31T12:33:19Z</time>
      </trkpt>
      <trkpt lat="43.33216" lon="5.23665">
        <ele>35.23</ele>
        <time>2016-10-31T12:33:32Z</time>
      </trkpt>
      <trkpt lat="43.33218" lon="5.23658">
        <ele>32.82</ele>
        <time>2016-10-31T12:33:47Z</time>
      </trkpt>
      <trkpt lat="43.33222" lon="5.23652">
        <ele>31.38</ele>
        <time>2016-10-31T12:34:02Z</time>
      </trkpt>
      <trkpt lat="43.33225" lon="5.23651">
        <ele>29.46</ele>
        <time>2016-10-31T12:34:17Z</time>
      </trkpt>
      <trkpt lat="43.33228" lon="5.23649">
        <ele>29.46</ele>
        <time>2016-10-31T12:34:32Z</time>
      </trkpt>
      <trkpt lat="43.33232" lon="5.23647">
        <ele>28.98</ele>
        <time>2016-10-31T12:34:54Z</time>
      </trkpt>
      <trkpt lat="43.33232" lon="5.2365">
        <ele>27.05</ele>
        <time>2016-10-31T12:35:09Z</time>
      </trkpt>
      <trkpt lat="43.33231" lon="5.23653">
        <ele>27.05</ele>
        <time>2016-10-31T12:35:29Z</time>
      </trkpt>
      <trkpt lat="43.33227" lon="5.23661">
        <ele>25.13</ele>
        <time>2016-10-31T12:35:45Z</time>
      </trkpt>
      <trkpt lat="43.33231" lon="5.23669">
        <ele>24.17</ele>
        <time>2016-10-31T12:36:05Z</time>
      </trkpt>
      <trkpt lat="43.33227" lon="5.23676">
        <ele>23.69</ele>
        <time>2016-10-31T12:36:27Z</time>
      </trkpt>
      <trkpt lat="43.33223" lon="5.2368">
        <ele>22.25</ele>
        <time>2016-10-31T12:36:44Z</time>
      </trkpt>
      <trkpt lat="43.33217" lon="5.23684">
        <ele>19.84</ele>
        <time>2016-10-31T12:37:01Z</time>
      </trkpt>
      <trkpt lat="43.33215" lon="5.23687">
        <ele>18.4</ele>
        <time>2016-10-31T12:37:16Z</time>
      </trkpt>
      <trkpt lat="43.33208" lon="5.23693">
        <ele>16</ele>
        <time>2016-10-31T12:37:35Z</time>
      </trkpt>
      <trkpt lat="43.33207" lon="5.23702">
        <ele>15.52</ele>
        <time>2016-10-31T12:37:49Z</time>
      </trkpt>
      <trkpt lat="43.33209" lon="5.23708">
        <ele>16.96</ele>
        <time>2016-10-31T12:38:03Z</time>
      </trkpt>
      <trkpt lat="43.33208" lon="5.23708">
        <ele>17.44</ele>
        <time>2016-10-31T12:38:30Z</time>
      </trkpt>
      <trkpt lat="43.33208" lon="5.23705">
        <ele>17.44</ele>
        <time>2016-10-31T12:38:53Z</time>
      </trkpt>
      <trkpt lat="43.33209" lon="5.23706">
        <ele>17.44</ele>
        <time>2016-10-31T12:39:21Z</time>
      </trkpt>
      <trkpt lat="43.33207" lon="5.23708">
        <ele>17.44</ele>
        <time>2016-10-31T12:39:43Z</time>
      </trkpt>
      <trkpt lat="43.33208" lon="5.23709">
        <ele>17.44</ele>
        <time>2016-10-31T12:40:01Z</time>
      </trkpt>
      <trkpt lat="43.33207" lon="5.23712">
        <ele>17.44</ele>
        <time>2016-10-31T12:40:16Z</time>
      </trkpt>
      <trkpt lat="43.33208" lon="5.23718">
        <ele>16</ele>
        <time>2016-10-31T12:40:34Z</time>
      </trkpt>
      <trkpt lat="43.33204" lon="5.23721">
        <ele>16.96</ele>
        <time>2016-10-31T12:40:48Z</time>
      </trkpt>
      <trkpt lat="43.33202" lon="5.23722">
        <ele>17.44</ele>
        <time>2016-10-31T12:41:05Z</time>
      </trkpt>
      <trkpt lat="43.33201" lon="5.23724">
        <ele>19.36</ele>
        <time>2016-10-31T12:41:19Z</time>
      </trkpt>
      <trkpt lat="43.33197" lon="5.23725">
        <ele>18.88</ele>
        <time>2016-10-31T12:41:35Z</time>
      </trkpt>
      <trkpt lat="43.33196" lon="5.23727">
        <ele>17.44</ele>
        <time>2016-10-31T12:41:51Z</time>
      </trkpt>
      <trkpt lat="43.33194" lon="5.23728">
        <ele>16.48</ele>
        <time>2016-10-31T12:42:06Z</time>
      </trkpt>
      <trkpt lat="43.33191" lon="5.23729">
        <ele>16</ele>
        <time>2016-10-31T12:42:21Z</time>
      </trkpt>
      <trkpt lat="43.33187" lon="5.2373">
        <ele>14.56</ele>
        <time>2016-10-31T12:42:39Z</time>
      </trkpt>
      <trkpt lat="43.33187" lon="5.23733">
        <ele>14.56</ele>
        <time>2016-10-31T12:42:53Z</time>
      </trkpt>
      <trkpt lat="43.33186" lon="5.23736">
        <ele>13.6</ele>
        <time>2016-10-31T12:43:08Z</time>
      </trkpt>
      <trkpt lat="43.33182" lon="5.2374">
        <ele>12.63</ele>
        <time>2016-10-31T12:43:23Z</time>
      </trkpt>
      <trkpt lat="43.33182" lon="5.23747">
        <ele>11.67</ele>
        <time>2016-10-31T12:43:41Z</time>
      </trkpt>
      <trkpt lat="43.33183" lon="5.23756">
        <ele>11.19</ele>
        <time>2016-10-31T12:43:54Z</time>
      </trkpt>
      <trkpt lat="43.33184" lon="5.2376">
        <ele>12.63</ele>
        <time>2016-10-31T12:43:58Z</time>
      </trkpt>
      <trkpt lat="43.33183" lon="5.23769">
        <ele>15.04</ele>
        <time>2016-10-31T12:44:12Z</time>
      </trkpt>
      <trkpt lat="43.33182" lon="5.23775">
        <ele>15.52</ele>
        <time>2016-10-31T12:44:26Z</time>
      </trkpt>
      <trkpt lat="43.3318" lon="5.23776">
        <ele>15.52</ele>
        <time>2016-10-31T12:44:52Z</time>
      </trkpt>
      <trkpt lat="43.33181" lon="5.23777">
        <ele>15.52</ele>
        <time>2016-10-31T12:45:22Z</time>
      </trkpt>
      <trkpt lat="43.33182" lon="5.23776">
        <ele>15.52</ele>
        <time>2016-10-31T12:45:46Z</time>
      </trkpt>
      <trkpt lat="43.33181" lon="5.23779">
        <ele>16</ele>
        <time>2016-10-31T12:46:06Z</time>
      </trkpt>
      <trkpt lat="43.33182" lon="5.23778">
        <ele>16</ele>
        <time>2016-10-31T12:46:26Z</time>
      </trkpt>
      <trkpt lat="43.33183" lon="5.2378">
        <ele>16</ele>
        <time>2016-10-31T12:46:49Z</time>
      </trkpt>
      <trkpt lat="43.33185" lon="5.23782">
        <ele>16</ele>
        <time>2016-10-31T12:47:13Z</time>
      </trkpt>
      <trkpt lat="43.33184" lon="5.23781">
        <ele>15.52</ele>
        <time>2016-10-31T12:47:39Z</time>
      </trkpt>
      <trkpt lat="43.33182" lon="5.23784">
        <ele>15.52</ele>
        <time>2016-10-31T12:48:04Z</time>
      </trkpt>
      <trkpt lat="43.33182" lon="5.23791">
        <ele>16.48</ele>
        <time>2016-10-31T12:48:19Z</time>
      </trkpt>
      <trkpt lat="43.33181" lon="5.238">
        <ele>18.4</ele>
        <time>2016-10-31T12:48:36Z</time>
      </trkpt>
      <trkpt lat="43.33184" lon="5.23807">
        <ele>20.81</ele>
        <time>2016-10-31T12:48:51Z</time>
      </trkpt>
      <trkpt lat="43.33181" lon="5.23816">
        <ele>21.77</ele>
        <time>2016-10-31T12:49:06Z</time>
      </trkpt>
      <trkpt lat="43.33183" lon="5.23828">
        <ele>23.69</ele>
        <time>2016-10-31T12:49:20Z</time>
      </trkpt>
      <trkpt lat="43.33184" lon="5.23835">
        <ele>24.65</ele>
        <time>2016-10-31T12:49:33Z</time>
      </trkpt>
      <trkpt lat="43.33186" lon="5.2384">
        <ele>26.09</ele>
        <time>2016-10-31T12:49:50Z</time>
      </trkpt>
      <trkpt lat="43.33186" lon="5.23849">
        <ele>27.05</ele>
        <time>2016-10-31T12:50:03Z</time>
      </trkpt>
      <trkpt lat="43.33188" lon="5.2386">
        <ele>25.61</ele>
        <time>2016-10-31T12:50:18Z</time>
      </trkpt>
      <trkpt lat="43.33187" lon="5.23868">
        <ele>25.61</ele>
        <time>2016-10-31T12:50:32Z</time>
      </trkpt>
      <trkpt lat="43.33187" lon="5.2387">
        <ele>27.05</ele>
        <time>2016-10-31T12:50:36Z</time>
      </trkpt>
      <trkpt lat="43.33187" lon="5.23877">
        <ele>27.53</ele>
        <time>2016-10-31T12:50:49Z</time>
      </trkpt>
      <trkpt lat="43.33186" lon="5.23882">
        <ele>28.5</ele>
        <time>2016-10-31T12:51:04Z</time>
      </trkpt>
      <trkpt lat="43.33186" lon="5.23888">
        <ele>29.46</ele>
        <time>2016-10-31T12:51:23Z</time>
      </trkpt>
      <trkpt lat="43.33187" lon="5.23891">
        <ele>29.94</ele>
        <time>2016-10-31T12:51:39Z</time>
      </trkpt>
      <trkpt lat="43.33188" lon="5.23893">
        <ele>30.9</ele>
        <time>2016-10-31T12:51:54Z</time>
      </trkpt>
      <trkpt lat="43.33189" lon="5.23895">
        <ele>31.86</ele>
        <time>2016-10-31T12:52:12Z</time>
      </trkpt>
      <trkpt lat="43.3319" lon="5.23898">
        <ele>31.86</ele>
        <time>2016-10-31T12:52:28Z</time>
      </trkpt>
      <trkpt lat="43.33191" lon="5.23903">
        <ele>32.34</ele>
        <time>2016-10-31T12:52:44Z</time>
      </trkpt>
      <trkpt lat="43.33191" lon="5.23906">
        <ele>32.34</ele>
        <time>2016-10-31T12:53:10Z</time>
      </trkpt>
      <trkpt lat="43.33191" lon="5.23909">
        <ele>32.34</ele>
        <time>2016-10-31T12:53:31Z</time>
      </trkpt>
      <trkpt lat="43.33193" lon="5.23912">
        <ele>33.3</ele>
        <time>2016-10-31T12:53:49Z</time>
      </trkpt>
      <trkpt lat="43.33191" lon="5.23921">
        <ele>33.78</ele>
        <time>2016-10-31T12:54:04Z</time>
      </trkpt>
      <trkpt lat="43.33191" lon="5.23924">
        <ele>33.78</ele>
        <time>2016-10-31T12:54:28Z</time>
      </trkpt>
      <trkpt lat="43.33191" lon="5.23924">
        <ele>33.78</ele>
        <time>2016-10-31T12:54:54Z</time>
      </trkpt>
      <trkpt lat="43.33191" lon="5.23926">
        <ele>33.78</ele>
        <time>2016-10-31T12:55:17Z</time>
      </trkpt>
      <trkpt lat="43.3319" lon="5.23925">
        <ele>33.78</ele>
        <time>2016-10-31T12:55:30Z</time>
      </trkpt>
      <trkpt lat="43.33193" lon="5.23926">
        <ele>34.74</ele>
        <time>2016-10-31T12:55:48Z</time>
      </trkpt>
      <trkpt lat="43.33193" lon="5.23925">
        <ele>35.71</ele>
        <time>2016-10-31T12:56:07Z</time>
      </trkpt>
      <trkpt lat="43.33194" lon="5.23932">
        <ele>37.15</ele>
        <time>2016-10-31T12:56:23Z</time>
      </trkpt>
      <trkpt lat="43.33193" lon="5.23941">
        <ele>37.15</ele>
        <time>2016-10-31T12:56:40Z</time>
      </trkpt>
      <trkpt lat="43.33193" lon="5.23949">
        <ele>34.26</ele>
        <time>2016-10-31T12:56:57Z</time>
      </trkpt>
      <trkpt lat="43.33197" lon="5.23966">
        <ele>35.23</ele>
        <time>2016-10-31T12:57:15Z</time>
      </trkpt>
      <trkpt lat="43.33197" lon="5.23966">
        <ele>35.23</ele>
        <time>2016-10-31T12:57:16Z</time>
      </trkpt>
      <trkpt lat="43.33198" lon="5.23972">
        <ele>37.15</ele>
        <time>2016-10-31T12:57:32Z</time>
      </trkpt>
      <trkpt lat="43.33199" lon="5.23977">
        <ele>39.07</ele>
        <time>2016-10-31T12:57:46Z</time>
      </trkpt>
      <trkpt lat="43.33199" lon="5.23982">
        <ele>39.07</ele>
        <time>2016-10-31T12:57:59Z</time>
      </trkpt>
      <trkpt lat="43.332" lon="5.23985">
        <ele>37.63</ele>
        <time>2016-10-31T12:58:09Z</time>
      </trkpt>
      <trkpt lat="43.33208" lon="5.24">
        <ele>37.63</ele>
        <time>2016-10-31T12:58:27Z</time>
      </trkpt>
      <trkpt lat="43.33209" lon="5.24008">
        <ele>37.63</ele>
        <time>2016-10-31T12:58:41Z</time>
      </trkpt>
      <trkpt lat="43.33211" lon="5.24018">
        <ele>38.59</ele>
        <time>2016-10-31T12:58:54Z</time>
      </trkpt>
      <trkpt lat="43.33211" lon="5.24023">
        <ele>38.59</ele>
        <time>2016-10-31T12:59:08Z</time>
      </trkpt>
      <trkpt lat="43.33213" lon="5.24028">
        <ele>39.07</ele>
        <time>2016-10-31T12:59:21Z</time>
      </trkpt>
      <trkpt lat="43.33216" lon="5.24037">
        <ele>39.07</ele>
        <time>2016-10-31T12:59:35Z</time>
      </trkpt>
      <trkpt lat="43.33222" lon="5.24051">
        <ele>39.07</ele>
        <time>2016-10-31T12:59:51Z</time>
      </trkpt>
      <trkpt lat="43.33226" lon="5.24064">
        <ele>39.07</ele>
        <time>2016-10-31T13:00:07Z</time>
      </trkpt>
      <trkpt lat="43.33227" lon="5.24072">
        <ele>38.11</ele>
        <time>2016-10-31T13:00:23Z</time>
      </trkpt>
      <trkpt lat="43.3323" lon="5.24078">
        <ele>37.15</ele>
        <time>2016-10-31T13:00:36Z</time>
      </trkpt>
      <trkpt lat="43.33232" lon="5.24084">
        <ele>36.67</ele>
        <time>2016-10-31T13:00:51Z</time>
      </trkpt>
      <trkpt lat="43.33233" lon="5.24095">
        <ele>35.23</ele>
        <time>2016-10-31T13:01:05Z</time>
      </trkpt>
      <trkpt lat="43.33232" lon="5.24106">
        <ele>34.74</ele>
        <time>2016-10-31T13:01:20Z</time>
      </trkpt>
      <trkpt lat="43.3323" lon="5.24115">
        <ele>33.78</ele>
        <time>2016-10-31T13:01:36Z</time>
      </trkpt>
      <trkpt lat="43.33229" lon="5.24118">
        <ele>33.3</ele>
        <time>2016-10-31T13:01:50Z</time>
      </trkpt>
      <trkpt lat="43.33229" lon="5.24129">
        <ele>31.86</ele>
        <time>2016-10-31T13:02:06Z</time>
      </trkpt>
      <trkpt lat="43.33227" lon="5.24137">
        <ele>31.38</ele>
        <time>2016-10-31T13:02:21Z</time>
      </trkpt>
      <trkpt lat="43.33229" lon="5.24144">
        <ele>29.94</ele>
        <time>2016-10-31T13:02:39Z</time>
      </trkpt>
      <trkpt lat="43.33228" lon="5.24152">
        <ele>28.98</ele>
        <time>2016-10-31T13:02:56Z</time>
      </trkpt>
      <trkpt lat="43.33227" lon="5.24169">
        <ele>28.02</ele>
        <time>2016-10-31T13:03:12Z</time>
      </trkpt>
      <trkpt lat="43.33228" lon="5.24176">
        <ele>28.98</ele>
        <time>2016-10-31T13:03:20Z</time>
      </trkpt>
      <trkpt lat="43.33229" lon="5.24186">
        <ele>29.46</ele>
        <time>2016-10-31T13:03:31Z</time>
      </trkpt>
      <trkpt lat="43.33232" lon="5.24193">
        <ele>30.42</ele>
        <time>2016-10-31T13:03:42Z</time>
      </trkpt>
      <trkpt lat="43.33234" lon="5.24199">
        <ele>30.9</ele>
        <time>2016-10-31T13:03:54Z</time>
      </trkpt>
      <trkpt lat="43.33235" lon="5.242">
        <ele>30.9</ele>
        <time>2016-10-31T13:04:10Z</time>
      </trkpt>
      <trkpt lat="43.33236" lon="5.24208">
        <ele>31.38</ele>
        <time>2016-10-31T13:04:24Z</time>
      </trkpt>
      <trkpt lat="43.3324" lon="5.24225">
        <ele>31.38</ele>
        <time>2016-10-31T13:04:43Z</time>
      </trkpt>
      <trkpt lat="43.3324" lon="5.24234">
        <ele>31.86</ele>
        <time>2016-10-31T13:04:58Z</time>
      </trkpt>
      <trkpt lat="43.33241" lon="5.24236">
        <ele>31.86</ele>
        <time>2016-10-31T13:05:18Z</time>
      </trkpt>
      <trkpt lat="43.3324" lon="5.24238">
        <ele>31.86</ele>
        <time>2016-10-31T13:05:43Z</time>
      </trkpt>
      <trkpt lat="43.33242" lon="5.24241">
        <ele>32.34</ele>
        <time>2016-10-31T13:06:00Z</time>
      </trkpt>
      <trkpt lat="43.33246" lon="5.24244">
        <ele>32.82</ele>
        <time>2016-10-31T13:06:12Z</time>
      </trkpt>
      <trkpt lat="43.33247" lon="5.24247">
        <ele>31.38</ele>
        <time>2016-10-31T13:06:18Z</time>
      </trkpt>
      <trkpt lat="43.33251" lon="5.24253">
        <ele>29.94</ele>
        <time>2016-10-31T13:06:32Z</time>
      </trkpt>
      <trkpt lat="43.33261" lon="5.24261">
        <ele>28.5</ele>
        <time>2016-10-31T13:06:48Z</time>
      </trkpt>
      <trkpt lat="43.33268" lon="5.24265">
        <ele>27.05</ele>
        <time>2016-10-31T13:07:04Z</time>
      </trkpt>
      <trkpt lat="43.33276" lon="5.2427">
        <ele>26.09</ele>
        <time>2016-10-31T13:07:19Z</time>
      </trkpt>
      <trkpt lat="43.33282" lon="5.24283">
        <ele>24.65</ele>
        <time>2016-10-31T13:07:36Z</time>
      </trkpt>
      <trkpt lat="43.33282" lon="5.24292">
        <ele>23.69</ele>
        <time>2016-10-31T13:07:49Z</time>
      </trkpt>
      <trkpt lat="43.33282" lon="5.243">
        <ele>23.21</ele>
        <time>2016-10-31T13:08:03Z</time>
      </trkpt>
      <trkpt lat="43.33284" lon="5.24307">
        <ele>26.57</ele>
        <time>2016-10-31T13:08:16Z</time>
      </trkpt>
      <trkpt lat="43.33285" lon="5.24311">
        <ele>26.57</ele>
        <time>2016-10-31T13:08:31Z</time>
      </trkpt>
      <trkpt lat="43.33288" lon="5.24314">
        <ele>27.05</ele>
        <time>2016-10-31T13:08:43Z</time>
      </trkpt>
      <trkpt lat="43.33288" lon="5.24314">
        <ele>27.05</ele>
        <time>2016-10-31T13:09:00Z</time>
      </trkpt>
      <trkpt lat="43.33289" lon="5.24313">
        <ele>27.05</ele>
        <time>2016-10-31T13:09:24Z</time>
      </trkpt>
      <trkpt lat="43.33287" lon="5.24314">
        <ele>27.05</ele>
        <time>2016-10-31T13:09:52Z</time>
      </trkpt>
      <trkpt lat="43.33289" lon="5.24316">
        <ele>27.05</ele>
        <time>2016-10-31T13:10:21Z</time>
      </trkpt>
      <trkpt lat="43.3329" lon="5.24313">
        <ele>27.05</ele>
        <time>2016-10-31T13:10:47Z</time>
      </trkpt>
      <trkpt lat="43.33289" lon="5.24315">
        <ele>27.05</ele>
        <time>2016-10-31T13:11:09Z</time>
      </trkpt>
      <trkpt lat="43.33289" lon="5.24316">
        <ele>27.05</ele>
        <time>2016-10-31T13:11:30Z</time>
      </trkpt>
      <trkpt lat="43.33289" lon="5.24315">
        <ele>26.57</ele>
        <time>2016-10-31T13:11:59Z</time>
      </trkpt>
      <trkpt lat="43.33288" lon="5.24314">
        <ele>26.57</ele>
        <time>2016-10-31T13:12:22Z</time>
      </trkpt>
      <trkpt lat="43.33288" lon="5.24314">
        <ele>26.57</ele>
        <time>2016-10-31T13:12:48Z</time>
      </trkpt>
      <trkpt lat="43.33288" lon="5.24314">
        <ele>26.57</ele>
        <time>2016-10-31T13:13:19Z</time>
      </trkpt>
      <trkpt lat="43.33287" lon="5.24314">
        <ele>26.57</ele>
        <time>2016-10-31T13:13:41Z</time>
      </trkpt>
      <trkpt lat="43.33288" lon="5.24313">
        <ele>26.57</ele>
        <time>2016-10-31T13:14:10Z</time>
      </trkpt>
      <trkpt lat="43.33287" lon="5.24314">
        <ele>26.57</ele>
        <time>2016-10-31T13:14:46Z</time>
      </trkpt>
      <trkpt lat="43.33288" lon="5.24314">
        <ele>26.57</ele>
        <time>2016-10-31T13:15:13Z</time>
      </trkpt>
      <trkpt lat="43.33288" lon="5.24314">
        <ele>26.57</ele>
        <time>2016-10-31T13:15:50Z</time>
      </trkpt>
      <trkpt lat="43.33288" lon="5.24313">
        <ele>27.05</ele>
        <time>2016-10-31T13:16:24Z</time>
      </trkpt>
      <trkpt lat="43.33289" lon="5.24313">
        <ele>27.05</ele>
        <time>2016-10-31T13:16:47Z</time>
      </trkpt>
      <trkpt lat="43.33292" lon="5.24321">
        <ele>27.05</ele>
        <time>2016-10-31T13:17:03Z</time>
      </trkpt>
      <trkpt lat="43.33296" lon="5.24322">
        <ele>28.98</ele>
        <time>2016-10-31T13:17:20Z</time>
      </trkpt>
      <trkpt lat="43.333" lon="5.24325">
        <ele>29.94</ele>
        <time>2016-10-31T13:17:33Z</time>
      </trkpt>
      <trkpt lat="43.33303" lon="5.24327">
        <ele>29.94</ele>
        <time>2016-10-31T13:17:37Z</time>
      </trkpt>
      <trkpt lat="43.33311" lon="5.24327">
        <ele>31.38</ele>
        <time>2016-10-31T13:17:53Z</time>
      </trkpt>
      <trkpt lat="43.33316" lon="5.24329">
        <ele>33.3</ele>
        <time>2016-10-31T13:18:08Z</time>
      </trkpt>
      <trkpt lat="43.3332" lon="5.24336">
        <ele>34.26</ele>
        <time>2016-10-31T13:18:22Z</time>
      </trkpt>
      <trkpt lat="43.3332" lon="5.24337">
        <ele>35.23</ele>
        <time>2016-10-31T13:18:38Z</time>
      </trkpt>
      <trkpt lat="43.3332" lon="5.24344">
        <ele>35.71</ele>
        <time>2016-10-31T13:18:52Z</time>
      </trkpt>
      <trkpt lat="43.33324" lon="5.24353">
        <ele>36.67</ele>
        <time>2016-10-31T13:19:06Z</time>
      </trkpt>
      <trkpt lat="43.33326" lon="5.2436">
        <ele>36.67</ele>
        <time>2016-10-31T13:19:14Z</time>
      </trkpt>
      <trkpt lat="43.33333" lon="5.24371">
        <ele>36.67</ele>
        <time>2016-10-31T13:19:30Z</time>
      </trkpt>
      <trkpt lat="43.33334" lon="5.24376">
        <ele>36.67</ele>
        <time>2016-10-31T13:19:42Z</time>
      </trkpt>
      <trkpt lat="43.33335" lon="5.24382">
        <ele>35.23</ele>
        <time>2016-10-31T13:19:48Z</time>
      </trkpt>
      <trkpt lat="43.33341" lon="5.24394">
        <ele>35.23</ele>
        <time>2016-10-31T13:20:03Z</time>
      </trkpt>
      <trkpt lat="43.33344" lon="5.24402">
        <ele>37.15</ele>
        <time>2016-10-31T13:20:15Z</time>
      </trkpt>
      <trkpt lat="43.33345" lon="5.24407">
        <ele>38.59</ele>
        <time>2016-10-31T13:20:27Z</time>
      </trkpt>
      <trkpt lat="43.33345" lon="5.24417">
        <ele>39.55</ele>
        <time>2016-10-31T13:20:41Z</time>
      </trkpt>
      <trkpt lat="43.33346" lon="5.24422">
        <ele>39.55</ele>
        <time>2016-10-31T13:21:03Z</time>
      </trkpt>
      <trkpt lat="43.33346" lon="5.2442">
        <ele>39.55</ele>
        <time>2016-10-31T13:21:32Z</time>
      </trkpt>
      <trkpt lat="43.33347" lon="5.24419">
        <ele>39.55</ele>
        <time>2016-10-31T13:21:56Z</time>
      </trkpt>
      <trkpt lat="43.33347" lon="5.24422">
        <ele>39.55</ele>
        <time>2016-10-31T13:22:25Z</time>
      </trkpt>
      <trkpt lat="43.3335" lon="5.24426">
        <ele>39.55</ele>
        <time>2016-10-31T13:22:39Z</time>
      </trkpt>
      <trkpt lat="43.33355" lon="5.24433">
        <ele>39.55</ele>
        <time>2016-10-31T13:22:50Z</time>
      </trkpt>
      <trkpt lat="43.33364" lon="5.24437">
        <ele>40.03</ele>
        <time>2016-10-31T13:23:03Z</time>
      </trkpt>
      <trkpt lat="43.33371" lon="5.24437">
        <ele>40.03</ele>
        <time>2016-10-31T13:23:19Z</time>
      </trkpt>
      <trkpt lat="43.33381" lon="5.24439">
        <ele>40.51</ele>
        <time>2016-10-31T13:23:34Z</time>
      </trkpt>
      <trkpt lat="43.33394" lon="5.24447">
        <ele>42.44</ele>
        <time>2016-10-31T13:23:51Z</time>
      </trkpt>
      <trkpt lat="43.33394" lon="5.24461">
        <ele>42.44</ele>
        <time>2016-10-31T13:24:08Z</time>
      </trkpt>
      <trkpt lat="43.33391" lon="5.2447">
        <ele>42.44</ele>
        <time>2016-10-31T13:24:27Z</time>
      </trkpt>
      <trkpt lat="43.33389" lon="5.24475">
        <ele>42.44</ele>
        <time>2016-10-31T13:24:41Z</time>
      </trkpt>
      <trkpt lat="43.33388" lon="5.24481">
        <ele>42.44</ele>
        <time>2016-10-31T13:24:58Z</time>
      </trkpt>
      <trkpt lat="43.33388" lon="5.24485">
        <ele>42.44</ele>
        <time>2016-10-31T13:25:13Z</time>
      </trkpt>
      <trkpt lat="43.33387" lon="5.24489">
        <ele>42.44</ele>
        <time>2016-10-31T13:25:25Z</time>
      </trkpt>
      <trkpt lat="43.33389" lon="5.24492">
        <ele>43.4</ele>
        <time>2016-10-31T13:25:37Z</time>
      </trkpt>
      <trkpt lat="43.33388" lon="5.24497">
        <ele>43.4</ele>
        <time>2016-10-31T13:25:51Z</time>
      </trkpt>
      <trkpt lat="43.33388" lon="5.24502">
        <ele>41.47</ele>
        <time>2016-10-31T13:26:08Z</time>
      </trkpt>
      <trkpt lat="43.3339" lon="5.24508">
        <ele>41.47</ele>
        <time>2016-10-31T13:26:22Z</time>
      </trkpt>
      <trkpt lat="43.33387" lon="5.24507">
        <ele>40.03</ele>
        <time>2016-10-31T13:26:36Z</time>
      </trkpt>
      <trkpt lat="43.33386" lon="5.2451">
        <ele>38.59</ele>
        <time>2016-10-31T13:26:52Z</time>
      </trkpt>
      <trkpt lat="43.33385" lon="5.24511">
        <ele>37.15</ele>
        <time>2016-10-31T13:27:07Z</time>
      </trkpt>
      <trkpt lat="43.33383" lon="5.24512">
        <ele>36.67</ele>
        <time>2016-10-31T13:27:20Z</time>
      </trkpt>
      <trkpt lat="43.33384" lon="5.24515">
        <ele>35.71</ele>
        <time>2016-10-31T13:27:34Z</time>
      </trkpt>
      <trkpt lat="43.33386" lon="5.24527">
        <ele>35.23</ele>
        <time>2016-10-31T13:27:49Z</time>
      </trkpt>
      <trkpt lat="43.33387" lon="5.24533">
        <ele>34.74</ele>
        <time>2016-10-31T13:28:07Z</time>
      </trkpt>
      <trkpt lat="43.33392" lon="5.24537">
        <ele>34.26</ele>
        <time>2016-10-31T13:28:20Z</time>
      </trkpt>
      <trkpt lat="43.33398" lon="5.24544">
        <ele>34.26</ele>
        <time>2016-10-31T13:28:34Z</time>
      </trkpt>
      <trkpt lat="43.33407" lon="5.24539">
        <ele>34.26</ele>
        <time>2016-10-31T13:28:50Z</time>
      </trkpt>
      <trkpt lat="43.33416" lon="5.24542">
        <ele>35.71</ele>
        <time>2016-10-31T13:29:03Z</time>
      </trkpt>
      <trkpt lat="43.33424" lon="5.24536">
        <ele>36.19</ele>
        <time>2016-10-31T13:29:17Z</time>
      </trkpt>
      <trkpt lat="43.33429" lon="5.24535">
        <ele>39.55</ele>
        <time>2016-10-31T13:29:32Z</time>
      </trkpt>
      <trkpt lat="43.33436" lon="5.24534">
        <ele>40.03</ele>
        <time>2016-10-31T13:29:48Z</time>
      </trkpt>
      <trkpt lat="43.33442" lon="5.24538">
        <ele>40.99</ele>
        <time>2016-10-31T13:30:03Z</time>
      </trkpt>
      <trkpt lat="43.33442" lon="5.24545">
        <ele>38.11</ele>
        <time>2016-10-31T13:30:21Z</time>
      </trkpt>
      <trkpt lat="43.33446" lon="5.24552">
        <ele>36.19</ele>
        <time>2016-10-31T13:30:38Z</time>
      </trkpt>
      <trkpt lat="43.3345" lon="5.24556">
        <ele>35.71</ele>
        <time>2016-10-31T13:31:02Z</time>
      </trkpt>
      <trkpt lat="43.33447" lon="5.2456">
        <ele>35.23</ele>
        <time>2016-10-31T13:31:29Z</time>
      </trkpt>
      <trkpt lat="43.33447" lon="5.24561">
        <ele>35.23</ele>
        <time>2016-10-31T13:31:47Z</time>
      </trkpt>
      <trkpt lat="43.33448" lon="5.24561">
        <ele>35.23</ele>
        <time>2016-10-31T13:32:14Z</time>
      </trkpt>
      <trkpt lat="43.33447" lon="5.24579">
        <ele>35.23</ele>
        <time>2016-10-31T13:32:32Z</time>
      </trkpt>
      <trkpt lat="43.33441" lon="5.24589">
        <ele>38.11</ele>
        <time>2016-10-31T13:32:48Z</time>
      </trkpt>
      <trkpt lat="43.33437" lon="5.24593">
        <ele>39.07</ele>
        <time>2016-10-31T13:33:02Z</time>
      </trkpt>
      <trkpt lat="43.33436" lon="5.24593">
        <ele>37.63</ele>
        <time>2016-10-31T13:33:04Z</time>
      </trkpt>
      <trkpt lat="43.33431" lon="5.24593">
        <ele>35.23</ele>
        <time>2016-10-31T13:33:21Z</time>
      </trkpt>
      <trkpt lat="43.33428" lon="5.24583">
        <ele>33.78</ele>
        <time>2016-10-31T13:33:39Z</time>
      </trkpt>
      <trkpt lat="43.33426" lon="5.24573">
        <ele>32.34</ele>
        <time>2016-10-31T13:33:53Z</time>
      </trkpt>
      <trkpt lat="43.33421" lon="5.2458">
        <ele>32.34</ele>
        <time>2016-10-31T13:34:05Z</time>
      </trkpt>
      <trkpt lat="43.33419" lon="5.24583">
        <ele>33.78</ele>
        <time>2016-10-31T13:34:14Z</time>
      </trkpt>
      <trkpt lat="43.33413" lon="5.24585">
        <ele>33.78</ele>
        <time>2016-10-31T13:34:24Z</time>
      </trkpt>
      <trkpt lat="43.33409" lon="5.24587">
        <ele>33.78</ele>
        <time>2016-10-31T13:34:28Z</time>
      </trkpt>
      <trkpt lat="43.33406" lon="5.24589">
        <ele>33.78</ele>
        <time>2016-10-31T13:34:42Z</time>
      </trkpt>
      <trkpt lat="43.33401" lon="5.24593">
        <ele>32.82</ele>
        <time>2016-10-31T13:34:57Z</time>
      </trkpt>
      <trkpt lat="43.33401" lon="5.24599">
        <ele>32.82</ele>
        <time>2016-10-31T13:35:10Z</time>
      </trkpt>
      <trkpt lat="43.33403" lon="5.24604">
        <ele>35.23</ele>
        <time>2016-10-31T13:35:25Z</time>
      </trkpt>
      <trkpt lat="43.33404" lon="5.24613">
        <ele>36.67</ele>
        <time>2016-10-31T13:35:40Z</time>
      </trkpt>
      <trkpt lat="43.33401" lon="5.24621">
        <ele>38.11</ele>
        <time>2016-10-31T13:35:53Z</time>
      </trkpt>
      <trkpt lat="43.33403" lon="5.24626">
        <ele>39.55</ele>
        <time>2016-10-31T13:36:07Z</time>
      </trkpt>
      <trkpt lat="43.33406" lon="5.24629">
        <ele>40.51</ele>
        <time>2016-10-31T13:36:21Z</time>
      </trkpt>
      <trkpt lat="43.33406" lon="5.24632">
        <ele>40.51</ele>
        <time>2016-10-31T13:36:39Z</time>
      </trkpt>
      <trkpt lat="43.33407" lon="5.2464">
        <ele>40.51</ele>
        <time>2016-10-31T13:36:52Z</time>
      </trkpt>
      <trkpt lat="43.3341" lon="5.24652">
        <ele>40.51</ele>
        <time>2016-10-31T13:37:07Z</time>
      </trkpt>
      <trkpt lat="43.33414" lon="5.2466">
        <ele>40.51</ele>
        <time>2016-10-31T13:37:21Z</time>
      </trkpt>
      <trkpt lat="43.33421" lon="5.24673">
        <ele>40.99</ele>
        <time>2016-10-31T13:37:37Z</time>
      </trkpt>
      <trkpt lat="43.33424" lon="5.24678">
        <ele>40.99</ele>
        <time>2016-10-31T13:37:54Z</time>
      </trkpt>
      <trkpt lat="43.33423" lon="5.2468">
        <ele>39.55</ele>
        <time>2016-10-31T13:38:12Z</time>
      </trkpt>
      <trkpt lat="43.33423" lon="5.2468">
        <ele>39.55</ele>
        <time>2016-10-31T13:38:13Z</time>
      </trkpt>
      <trkpt lat="43.33422" lon="5.2468">
        <ele>39.55</ele>
        <time>2016-10-31T13:38:30Z</time>
      </trkpt>
      <trkpt lat="43.33423" lon="5.24679">
        <ele>39.55</ele>
        <time>2016-10-31T13:38:52Z</time>
      </trkpt>
      <trkpt lat="43.33423" lon="5.2468">
        <ele>40.99</ele>
        <time>2016-10-31T13:38:56Z</time>
      </trkpt>
      <trkpt lat="43.33425" lon="5.24678">
        <ele>40.99</ele>
        <time>2016-10-31T13:39:20Z</time>
      </trkpt>
      <trkpt lat="43.33425" lon="5.24679">
        <ele>40.99</ele>
        <time>2016-10-31T13:39:44Z</time>
      </trkpt>
      <trkpt lat="43.33425" lon="5.24679">
        <ele>40.99</ele>
        <time>2016-10-31T13:40:02Z</time>
      </trkpt>
      <trkpt lat="43.33424" lon="5.24679">
        <ele>40.99</ele>
        <time>2016-10-31T13:40:29Z</time>
      </trkpt>
      <trkpt lat="43.33424" lon="5.24684">
        <ele>40.99</ele>
        <time>2016-10-31T13:40:44Z</time>
      </trkpt>
      <trkpt lat="43.33426" lon="5.2469">
        <ele>40.99</ele>
        <time>2016-10-31T13:40:53Z</time>
      </trkpt>
      <trkpt lat="43.33432" lon="5.24704">
        <ele>41.47</ele>
        <time>2016-10-31T13:41:12Z</time>
      </trkpt>
      <trkpt lat="43.33435" lon="5.24703">
        <ele>42.44</ele>
        <time>2016-10-31T13:41:29Z</time>
      </trkpt>
      <trkpt lat="43.33436" lon="5.24707">
        <ele>43.4</ele>
        <time>2016-10-31T13:41:45Z</time>
      </trkpt>
      <trkpt lat="43.33438" lon="5.24709">
        <ele>44.36</ele>
        <time>2016-10-31T13:42:00Z</time>
      </trkpt>
      <trkpt lat="43.33442" lon="5.24715">
        <ele>44.84</ele>
        <time>2016-10-31T13:42:15Z</time>
      </trkpt>
      <trkpt lat="43.33447" lon="5.2472">
        <ele>46.76</ele>
        <time>2016-10-31T13:42:27Z</time>
      </trkpt>
      <trkpt lat="43.33451" lon="5.24736">
        <ele>46.76</ele>
        <time>2016-10-31T13:42:43Z</time>
      </trkpt>
      <trkpt lat="43.33452" lon="5.24752">
        <ele>46.76</ele>
        <time>2016-10-31T13:42:59Z</time>
      </trkpt>
      <trkpt lat="43.33456" lon="5.2476">
        <ele>47.24</ele>
        <time>2016-10-31T13:43:13Z</time>
      </trkpt>
      <trkpt lat="43.33463" lon="5.24768">
        <ele>47.24</ele>
        <time>2016-10-31T13:43:27Z</time>
      </trkpt>
      <trkpt lat="43.33469" lon="5.24773">
        <ele>48.68</ele>
        <time>2016-10-31T13:43:38Z</time>
      </trkpt>
      <trkpt lat="43.33478" lon="5.24774">
        <ele>48.68</ele>
        <time>2016-10-31T13:43:51Z</time>
      </trkpt>
      <trkpt lat="43.3349" lon="5.24781">
        <ele>49.16</ele>
        <time>2016-10-31T13:44:07Z</time>
      </trkpt>
      <trkpt lat="43.33498" lon="5.24793">
        <ele>49.16</ele>
        <time>2016-10-31T13:44:22Z</time>
      </trkpt>
      <trkpt lat="43.33506" lon="5.24805">
        <ele>49.16</ele>
        <time>2016-10-31T13:44:37Z</time>
      </trkpt>
      <trkpt lat="43.33512" lon="5.24816">
        <ele>49.65</ele>
        <time>2016-10-31T13:44:54Z</time>
      </trkpt>
      <trkpt lat="43.33514" lon="5.24819">
        <ele>48.2</ele>
        <time>2016-10-31T13:44:58Z</time>
      </trkpt>
      <trkpt lat="43.33519" lon="5.24828">
        <ele>45.8</ele>
        <time>2016-10-31T13:45:15Z</time>
      </trkpt>
      <trkpt lat="43.33522" lon="5.24838">
        <ele>43.4</ele>
        <time>2016-10-31T13:45:34Z</time>
      </trkpt>
      <trkpt lat="43.33524" lon="5.24849">
        <ele>41.47</ele>
        <time>2016-10-31T13:45:49Z</time>
      </trkpt>
      <trkpt lat="43.33526" lon="5.24865">
        <ele>38.59</ele>
        <time>2016-10-31T13:46:09Z</time>
      </trkpt>
      <trkpt lat="43.33524" lon="5.24877">
        <ele>36.67</ele>
        <time>2016-10-31T13:46:27Z</time>
      </trkpt>
      <trkpt lat="43.33525" lon="5.24888">
        <ele>34.74</ele>
        <time>2016-10-31T13:46:43Z</time>
      </trkpt>
      <trkpt lat="43.33529" lon="5.24896">
        <ele>33.3</ele>
        <time>2016-10-31T13:46:58Z</time>
      </trkpt>
      <trkpt lat="43.33534" lon="5.24904">
        <ele>31.38</ele>
        <time>2016-10-31T13:47:13Z</time>
      </trkpt>
      <trkpt lat="43.33537" lon="5.24906">
        <ele>29.94</ele>
        <time>2016-10-31T13:47:26Z</time>
      </trkpt>
      <trkpt lat="43.33539" lon="5.24907">
        <ele>29.46</ele>
        <time>2016-10-31T13:47:45Z</time>
      </trkpt>
      <trkpt lat="43.33548" lon="5.24917">
        <ele>28.5</ele>
        <time>2016-10-31T13:48:04Z</time>
      </trkpt>
      <trkpt lat="43.33551" lon="5.24928">
        <ele>26.57</ele>
        <time>2016-10-31T13:48:21Z</time>
      </trkpt>
      <trkpt lat="43.33549" lon="5.24934">
        <ele>25.13</ele>
        <time>2016-10-31T13:48:38Z</time>
      </trkpt>
      <trkpt lat="43.33548" lon="5.24937">
        <ele>24.65</ele>
        <time>2016-10-31T13:48:56Z</time>
      </trkpt>
      <trkpt lat="43.33546" lon="5.24944">
        <ele>25.61</ele>
        <time>2016-10-31T13:49:11Z</time>
      </trkpt>
      <trkpt lat="43.33544" lon="5.2495">
        <ele>25.61</ele>
        <time>2016-10-31T13:49:24Z</time>
      </trkpt>
      <trkpt lat="43.33543" lon="5.24952">
        <ele>24.65</ele>
        <time>2016-10-31T13:49:32Z</time>
      </trkpt>
      <trkpt lat="43.3354" lon="5.24957">
        <ele>24.17</ele>
        <time>2016-10-31T13:49:50Z</time>
      </trkpt>
      <trkpt lat="43.33537" lon="5.2496">
        <ele>24.17</ele>
        <time>2016-10-31T13:50:04Z</time>
      </trkpt>
      <trkpt lat="43.33539" lon="5.24966">
        <ele>23.69</ele>
        <time>2016-10-31T13:50:16Z</time>
      </trkpt>
      <trkpt lat="43.33541" lon="5.24969">
        <ele>23.69</ele>
        <time>2016-10-31T13:50:28Z</time>
      </trkpt>
      <trkpt lat="43.33543" lon="5.24974">
        <ele>23.21</ele>
        <time>2016-10-31T13:50:42Z</time>
      </trkpt>
      <trkpt lat="43.33545" lon="5.24984">
        <ele>23.21</ele>
        <time>2016-10-31T13:50:57Z</time>
      </trkpt>
      <trkpt lat="43.33547" lon="5.24996">
        <ele>22.73</ele>
        <time>2016-10-31T13:51:12Z</time>
      </trkpt>
      <trkpt lat="43.33553" lon="5.25012">
        <ele>23.21</ele>
        <time>2016-10-31T13:51:29Z</time>
      </trkpt>
      <trkpt lat="43.33557" lon="5.25023">
        <ele>22.73</ele>
        <time>2016-10-31T13:51:43Z</time>
      </trkpt>
      <trkpt lat="43.3356" lon="5.25036">
        <ele>22.73</ele>
        <time>2016-10-31T13:51:57Z</time>
      </trkpt>
      <trkpt lat="43.33565" lon="5.25047">
        <ele>22.25</ele>
        <time>2016-10-31T13:52:12Z</time>
      </trkpt>
      <trkpt lat="43.33567" lon="5.2506">
        <ele>22.25</ele>
        <time>2016-10-31T13:52:26Z</time>
      </trkpt>
      <trkpt lat="43.33574" lon="5.25076">
        <ele>23.69</ele>
        <time>2016-10-31T13:52:44Z</time>
      </trkpt>
      <trkpt lat="43.33577" lon="5.25087">
        <ele>24.17</ele>
        <time>2016-10-31T13:52:58Z</time>
      </trkpt>
      <trkpt lat="43.33579" lon="5.25097">
        <ele>24.17</ele>
        <time>2016-10-31T13:53:13Z</time>
      </trkpt>
      <trkpt lat="43.3358" lon="5.25101">
        <ele>24.17</ele>
        <time>2016-10-31T13:53:16Z</time>
      </trkpt>
      <trkpt lat="43.33584" lon="5.25112">
        <ele>24.65</ele>
        <time>2016-10-31T13:53:26Z</time>
      </trkpt>
      <trkpt lat="43.3359" lon="5.25124">
        <ele>24.17</ele>
        <time>2016-10-31T13:53:41Z</time>
      </trkpt>
      <trkpt lat="43.33593" lon="5.25129">
        <ele>24.17</ele>
        <time>2016-10-31T13:53:47Z</time>
      </trkpt>
      <trkpt lat="43.33598" lon="5.25148">
        <ele>24.65</ele>
        <time>2016-10-31T13:54:05Z</time>
      </trkpt>
      <trkpt lat="43.33599" lon="5.25149">
        <ele>24.65</ele>
        <time>2016-10-31T13:54:06Z</time>
      </trkpt>
      <trkpt lat="43.33606" lon="5.2516">
        <ele>23.21</ele>
        <time>2016-10-31T13:54:21Z</time>
      </trkpt>
      <trkpt lat="43.33606" lon="5.2516">
        <ele>23.21</ele>
        <time>2016-10-31T13:54:22Z</time>
      </trkpt>
      <trkpt lat="43.33618" lon="5.25166">
        <ele>24.65</ele>
        <time>2016-10-31T13:54:38Z</time>
      </trkpt>
      <trkpt lat="43.33623" lon="5.25175">
        <ele>24.65</ele>
        <time>2016-10-31T13:54:53Z</time>
      </trkpt>
      <trkpt lat="43.33629" lon="5.25187">
        <ele>24.65</ele>
        <time>2016-10-31T13:55:07Z</time>
      </trkpt>
      <trkpt lat="43.33636" lon="5.25199">
        <ele>23.21</ele>
        <time>2016-10-31T13:55:21Z</time>
      </trkpt>
      <trkpt lat="43.33643" lon="5.25212">
        <ele>23.21</ele>
        <time>2016-10-31T13:55:39Z</time>
      </trkpt>
      <trkpt lat="43.33646" lon="5.25218">
        <ele>22.73</ele>
        <time>2016-10-31T13:55:53Z</time>
      </trkpt>
      <trkpt lat="43.3365" lon="5.25231">
        <ele>22.25</ele>
        <time>2016-10-31T13:56:07Z</time>
      </trkpt>
      <trkpt lat="43.33655" lon="5.25243">
        <ele>21.77</ele>
        <time>2016-10-31T13:56:22Z</time>
      </trkpt>
      <trkpt lat="43.33664" lon="5.25258">
        <ele>21.77</ele>
        <time>2016-10-31T13:56:40Z</time>
      </trkpt>
      <trkpt lat="43.33672" lon="5.25265">
        <ele>21.77</ele>
        <time>2016-10-31T13:56:54Z</time>
      </trkpt>
      <trkpt lat="43.33683" lon="5.25257">
        <ele>21.29</ele>
        <time>2016-10-31T13:57:11Z</time>
      </trkpt>
      <trkpt lat="43.33691" lon="5.25252">
        <ele>21.29</ele>
        <time>2016-10-31T13:57:24Z</time>
      </trkpt>
      <trkpt lat="43.33696" lon="5.25248">
        <ele>22.73</ele>
        <time>2016-10-31T13:57:33Z</time>
      </trkpt>
      <trkpt lat="43.33704" lon="5.25249">
        <ele>24.17</ele>
        <time>2016-10-31T13:57:50Z</time>
      </trkpt>
      <trkpt lat="43.33715" lon="5.25249">
        <ele>25.13</ele>
        <time>2016-10-31T13:58:05Z</time>
      </trkpt>
      <trkpt lat="43.33724" lon="5.25249">
        <ele>26.09</ele>
        <time>2016-10-31T13:58:19Z</time>
      </trkpt>
      <trkpt lat="43.3373" lon="5.25249">
        <ele>26.09</ele>
        <time>2016-10-31T13:58:32Z</time>
      </trkpt>
      <trkpt lat="43.33739" lon="5.2525">
        <ele>28.5</ele>
        <time>2016-10-31T13:58:48Z</time>
      </trkpt>
      <trkpt lat="43.33746" lon="5.25251">
        <ele>30.42</ele>
        <time>2016-10-31T13:59:02Z</time>
      </trkpt>
      <trkpt lat="43.33755" lon="5.25258">
        <ele>32.82</ele>
        <time>2016-10-31T13:59:19Z</time>
      </trkpt>
      <trkpt lat="43.33762" lon="5.25263">
        <ele>34.26</ele>
        <time>2016-10-31T13:59:33Z</time>
      </trkpt>
      <trkpt lat="43.33767" lon="5.25264">
        <ele>35.71</ele>
        <time>2016-10-31T13:59:46Z</time>
      </trkpt>
      <trkpt lat="43.33774" lon="5.25264">
        <ele>37.15</ele>
        <time>2016-10-31T14:00:00Z</time>
      </trkpt>
      <trkpt lat="43.3378" lon="5.25259">
        <ele>37.63</ele>
        <time>2016-10-31T14:00:15Z</time>
      </trkpt>
      <trkpt lat="43.33782" lon="5.25259">
        <ele>36.19</ele>
        <time>2016-10-31T14:00:23Z</time>
      </trkpt>
      <trkpt lat="43.33783" lon="5.25259">
        <ele>35.71</ele>
        <time>2016-10-31T14:00:39Z</time>
      </trkpt>
      <trkpt lat="43.33785" lon="5.25259">
        <ele>34.74</ele>
        <time>2016-10-31T14:00:56Z</time>
      </trkpt>
      <trkpt lat="43.33787" lon="5.2526">
        <ele>34.26</ele>
        <time>2016-10-31T14:01:16Z</time>
      </trkpt>
      <trkpt lat="43.33789" lon="5.25259">
        <ele>33.78</ele>
        <time>2016-10-31T14:01:35Z</time>
      </trkpt>
      <trkpt lat="43.33791" lon="5.25256">
        <ele>32.82</ele>
        <time>2016-10-31T14:01:54Z</time>
      </trkpt>
      <trkpt lat="43.33795" lon="5.25255">
        <ele>32.34</ele>
        <time>2016-10-31T14:02:07Z</time>
      </trkpt>
      <trkpt lat="43.33801" lon="5.25253">
        <ele>31.38</ele>
        <time>2016-10-31T14:02:21Z</time>
      </trkpt>
      <trkpt lat="43.33804" lon="5.25255">
        <ele>28.98</ele>
        <time>2016-10-31T14:02:36Z</time>
      </trkpt>
      <trkpt lat="43.33808" lon="5.2526">
        <ele>27.05</ele>
        <time>2016-10-31T14:02:52Z</time>
      </trkpt>
      <trkpt lat="43.33814" lon="5.25268">
        <ele>26.57</ele>
        <time>2016-10-31T14:03:07Z</time>
      </trkpt>
      <trkpt lat="43.33821" lon="5.25272">
        <ele>29.46</ele>
        <time>2016-10-31T14:03:22Z</time>
      </trkpt>
      <trkpt lat="43.33825" lon="5.25271">
        <ele>31.86</ele>
        <time>2016-10-31T14:03:36Z</time>
      </trkpt>
      <trkpt lat="43.33824" lon="5.25276">
        <ele>33.3</ele>
        <time>2016-10-31T14:03:52Z</time>
      </trkpt>
      <trkpt lat="43.33821" lon="5.25278">
        <ele>31.86</ele>
        <time>2016-10-31T14:03:59Z</time>
      </trkpt>
      <trkpt lat="43.33816" lon="5.25281">
        <ele>31.38</ele>
        <time>2016-10-31T14:04:08Z</time>
      </trkpt>
      <trkpt lat="43.33808" lon="5.25291">
        <ele>32.82</ele>
        <time>2016-10-31T14:04:22Z</time>
      </trkpt>
      <trkpt lat="43.33807" lon="5.253">
        <ele>33.3</ele>
        <time>2016-10-31T14:04:38Z</time>
      </trkpt>
      <trkpt lat="43.33804" lon="5.25319">
        <ele>35.71</ele>
        <time>2016-10-31T14:04:56Z</time>
      </trkpt>
      <trkpt lat="43.33799" lon="5.25334">
        <ele>37.63</ele>
        <time>2016-10-31T14:05:13Z</time>
      </trkpt>
      <trkpt lat="43.33789" lon="5.25347">
        <ele>39.55</ele>
        <time>2016-10-31T14:05:33Z</time>
      </trkpt>
      <trkpt lat="43.33785" lon="5.25362">
        <ele>42.44</ele>
        <time>2016-10-31T14:05:50Z</time>
      </trkpt>
      <trkpt lat="43.33795" lon="5.25379">
        <ele>43.4</ele>
        <time>2016-10-31T14:06:08Z</time>
      </trkpt>
      <trkpt lat="43.338" lon="5.25387">
        <ele>43.88</ele>
        <time>2016-10-31T14:06:16Z</time>
      </trkpt>
      <trkpt lat="43.33815" lon="5.25405">
        <ele>43.88</ele>
        <time>2016-10-31T14:06:37Z</time>
      </trkpt>
      <trkpt lat="43.33829" lon="5.2542">
        <ele>43.88</ele>
        <time>2016-10-31T14:06:58Z</time>
      </trkpt>
      <trkpt lat="43.33843" lon="5.25431">
        <ele>43.88</ele>
        <time>2016-10-31T14:07:16Z</time>
      </trkpt>
      <trkpt lat="43.33849" lon="5.25438">
        <ele>42.92</ele>
        <time>2016-10-31T14:07:24Z</time>
      </trkpt>
      <trkpt lat="43.33863" lon="5.25451">
        <ele>42.44</ele>
        <time>2016-10-31T14:07:43Z</time>
      </trkpt>
      <trkpt lat="43.33875" lon="5.25464">
        <ele>41.95</ele>
        <time>2016-10-31T14:08:03Z</time>
      </trkpt>
      <trkpt lat="43.33883" lon="5.25476">
        <ele>41.95</ele>
        <time>2016-10-31T14:08:21Z</time>
      </trkpt>
      <trkpt lat="43.33889" lon="5.25483">
        <ele>41.95</ele>
        <time>2016-10-31T14:08:38Z</time>
      </trkpt>
      <trkpt lat="43.33898" lon="5.25498">
        <ele>41.47</ele>
        <time>2016-10-31T14:08:55Z</time>
      </trkpt>
      <trkpt lat="43.3391" lon="5.2551">
        <ele>41.47</ele>
        <time>2016-10-31T14:09:12Z</time>
      </trkpt>
      <trkpt lat="43.33914" lon="5.25516">
        <ele>41.47</ele>
        <time>2016-10-31T14:09:28Z</time>
      </trkpt>
      <trkpt lat="43.33916" lon="5.25518">
        <ele>41.47</ele>
        <time>2016-10-31T14:09:49Z</time>
      </trkpt>
      <trkpt lat="43.3392" lon="5.25521">
        <ele>40.99</ele>
        <time>2016-10-31T14:10:05Z</time>
      </trkpt>
      <trkpt lat="43.33921" lon="5.25521">
        <ele>40.99</ele>
        <time>2016-10-31T14:10:24Z</time>
      </trkpt>
      <trkpt lat="43.33922" lon="5.25521">
        <ele>40.51</ele>
        <time>2016-10-31T14:10:39Z</time>
      </trkpt>
      <trkpt lat="43.33923" lon="5.25522">
        <ele>40.51</ele>
        <time>2016-10-31T14:11:00Z</time>
      </trkpt>
      <trkpt lat="43.33923" lon="5.25522">
        <ele>40.51</ele>
        <time>2016-10-31T14:11:25Z</time>
      </trkpt>
      <trkpt lat="43.33922" lon="5.25522">
        <ele>40.03</ele>
        <time>2016-10-31T14:11:41Z</time>
      </trkpt>
      <trkpt lat="43.33922" lon="5.25522">
        <ele>40.03</ele>
        <time>2016-10-31T14:11:59Z</time>
      </trkpt>
      <trkpt lat="43.33922" lon="5.25524">
        <ele>40.03</ele>
        <time>2016-10-31T14:12:18Z</time>
      </trkpt>
      <trkpt lat="43.33929" lon="5.25533">
        <ele>40.03</ele>
        <time>2016-10-31T14:12:33Z</time>
      </trkpt>
      <trkpt lat="43.33938" lon="5.25544">
        <ele>39.07</ele>
        <time>2016-10-31T14:12:50Z</time>
      </trkpt>
      <trkpt lat="43.33948" lon="5.25561">
        <ele>37.63</ele>
        <time>2016-10-31T14:13:11Z</time>
      </trkpt>
      <trkpt lat="43.33957" lon="5.25575">
        <ele>36.19</ele>
        <time>2016-10-31T14:13:31Z</time>
      </trkpt>
      <trkpt lat="43.33966" lon="5.25588">
        <ele>35.71</ele>
        <time>2016-10-31T14:13:48Z</time>
      </trkpt>
      <trkpt lat="43.33971" lon="5.25604">
        <ele>34.26</ele>
        <time>2016-10-31T14:14:06Z</time>
      </trkpt>
      <trkpt lat="43.33971" lon="5.25611">
        <ele>33.78</ele>
        <time>2016-10-31T14:14:27Z</time>
      </trkpt>
      <trkpt lat="43.33969" lon="5.25622">
        <ele>32.82</ele>
        <time>2016-10-31T14:14:51Z</time>
      </trkpt>
      <trkpt lat="43.33956" lon="5.2563">
        <ele>30.9</ele>
        <time>2016-10-31T14:15:09Z</time>
      </trkpt>
      <trkpt lat="43.33943" lon="5.25641">
        <ele>29.46</ele>
        <time>2016-10-31T14:15:29Z</time>
      </trkpt>
      <trkpt lat="43.33937" lon="5.25643">
        <ele>28.98</ele>
        <time>2016-10-31T14:15:47Z</time>
      </trkpt>
      <trkpt lat="43.3393" lon="5.25647">
        <ele>28.5</ele>
        <time>2016-10-31T14:16:04Z</time>
      </trkpt>
      <trkpt lat="43.33916" lon="5.25656">
        <ele>27.53</ele>
        <time>2016-10-31T14:16:23Z</time>
      </trkpt>
      <trkpt lat="43.33906" lon="5.25659">
        <ele>27.05</ele>
        <time>2016-10-31T14:16:40Z</time>
      </trkpt>
      <trkpt lat="43.33906" lon="5.25658">
        <ele>27.05</ele>
        <time>2016-10-31T14:17:10Z</time>
      </trkpt>
      <trkpt lat="43.33907" lon="5.2566">
        <ele>27.05</ele>
        <time>2016-10-31T14:17:34Z</time>
      </trkpt>
      <trkpt lat="43.3391" lon="5.25658">
        <ele>26.09</ele>
        <time>2016-10-31T14:17:51Z</time>
      </trkpt>
      <trkpt lat="43.33907" lon="5.25659">
        <ele>26.09</ele>
        <time>2016-10-31T14:18:20Z</time>
      </trkpt>
    </trkseg>
  </trk>
</gpx>